<?xml version="1.0" encoding="UTF-8" standalone="no" ?>
<gpx xmlns="http://www.topografix.com/GPX/1/1" xmlns:xsi="http://www.w3.org/2001/XMLSchema-instance" xsi:schemaLocation="http://www.topografix.com/GPX/1/1 http://www.topografix.com/GPX/1/1/gpx.xsd" version="1.1" creator="VisuGPX - https://www.visugpx.com">
  <metadata>
    <name>J2 tour des Cerces</name>
    <desc><![CDATA[Le Hervé tour]]></desc>
  </metadata>
  <trk>
    <name><![CDATA[Tracé 028]]></name>
    <trkseg>
      <trkpt lat="45.01944" lon="6.60697">
        <ele>1594.9</ele>
        <time>2014-07-16T07:53:37Z</time>
      </trkpt>
      <trkpt lat="45.01967" lon="6.60605">
        <ele>1601.1</ele>
        <time>2014-07-16T07:54:07Z</time>
      </trkpt>
      <trkpt lat="45.01975" lon="6.60578">
        <ele>1602.9</ele>
        <time>2014-07-16T07:54:16Z</time>
      </trkpt>
      <trkpt lat="45.01987" lon="6.60528">
        <ele>1606.1</ele>
        <time>2014-07-16T07:54:32Z</time>
      </trkpt>
      <trkpt lat="45.01998" lon="6.60455">
        <ele>1609.9</ele>
        <time>2014-07-16T07:54:56Z</time>
      </trkpt>
      <trkpt lat="45.01992" lon="6.60397">
        <ele>1614.1</ele>
        <time>2014-07-16T07:55:15Z</time>
      </trkpt>
      <trkpt lat="45.01985" lon="6.60368">
        <ele>1615.4</ele>
        <time>2014-07-16T07:55:25Z</time>
      </trkpt>
      <trkpt lat="45.01966" lon="6.60315">
        <ele>1615.3</ele>
        <time>2014-07-16T07:56:02Z</time>
      </trkpt>
      <trkpt lat="45.01952" lon="6.60264">
        <ele>1620.8</ele>
        <time>2014-07-16T07:56:22Z</time>
      </trkpt>
      <trkpt lat="45.01934" lon="6.60226">
        <ele>1617.9</ele>
        <time>2014-07-16T07:56:35Z</time>
      </trkpt>
      <trkpt lat="45.01907" lon="6.60183">
        <ele>1618.1</ele>
        <time>2014-07-16T07:56:51Z</time>
      </trkpt>
      <trkpt lat="45.01903" lon="6.60169">
        <ele>1619.3</ele>
        <time>2014-07-16T07:56:55Z</time>
      </trkpt>
      <trkpt lat="45.01896" lon="6.60114">
        <ele>1622.6</ele>
        <time>2014-07-16T07:57:11Z</time>
      </trkpt>
      <trkpt lat="45.01893" lon="6.60073">
        <ele>1624.1</ele>
        <time>2014-07-16T07:57:23Z</time>
      </trkpt>
      <trkpt lat="45.01898" lon="6.60047">
        <ele>1625.3</ele>
        <time>2014-07-16T07:57:31Z</time>
      </trkpt>
      <trkpt lat="45.01915" lon="6.59991">
        <ele>1628.9</ele>
        <time>2014-07-16T07:57:50Z</time>
      </trkpt>
      <trkpt lat="45.0195" lon="6.59892">
        <ele>1637.2</ele>
        <time>2014-07-16T07:58:27Z</time>
      </trkpt>
      <trkpt lat="45.01966" lon="6.59839">
        <ele>1641.4</ele>
        <time>2014-07-16T07:58:47Z</time>
      </trkpt>
      <trkpt lat="45.01986" lon="6.59787">
        <ele>1647.4</ele>
        <time>2014-07-16T07:59:11Z</time>
      </trkpt>
      <trkpt lat="45.02008" lon="6.59741">
        <ele>1655</ele>
        <time>2014-07-16T07:59:33Z</time>
      </trkpt>
      <trkpt lat="45.02015" lon="6.59714">
        <ele>1658.1</ele>
        <time>2014-07-16T07:59:46Z</time>
      </trkpt>
      <trkpt lat="45.02011" lon="6.59672">
        <ele>1657.7</ele>
        <time>2014-07-16T08:00:03Z</time>
      </trkpt>
      <trkpt lat="45.02006" lon="6.59589">
        <ele>1661.5</ele>
        <time>2014-07-16T08:00:34Z</time>
      </trkpt>
      <trkpt lat="45.02003" lon="6.59532">
        <ele>1664.4</ele>
        <time>2014-07-16T08:00:54Z</time>
      </trkpt>
      <trkpt lat="45.02017" lon="6.59414">
        <ele>1675</ele>
        <time>2014-07-16T08:01:40Z</time>
      </trkpt>
      <trkpt lat="45.0202" lon="6.59389">
        <ele>1677.5</ele>
        <time>2014-07-16T08:01:50Z</time>
      </trkpt>
      <trkpt lat="45.02025" lon="6.59331">
        <ele>1679.9</ele>
        <time>2014-07-16T08:02:14Z</time>
      </trkpt>
      <trkpt lat="45.02011" lon="6.59269">
        <ele>1681</ele>
        <time>2014-07-16T08:02:39Z</time>
      </trkpt>
      <trkpt lat="45.02009" lon="6.59226">
        <ele>1684.4</ele>
        <time>2014-07-16T08:02:56Z</time>
      </trkpt>
      <trkpt lat="45.02016" lon="6.59184">
        <ele>1687.8</ele>
        <time>2014-07-16T08:03:13Z</time>
      </trkpt>
      <trkpt lat="45.0203" lon="6.59149">
        <ele>1692.8</ele>
        <time>2014-07-16T08:03:44Z</time>
      </trkpt>
      <trkpt lat="45.02029" lon="6.59179">
        <ele>1692.4</ele>
        <time>2014-07-16T08:03:56Z</time>
      </trkpt>
      <trkpt lat="45.02036" lon="6.59219">
        <ele>1693.1</ele>
        <time>2014-07-16T08:04:34Z</time>
      </trkpt>
      <trkpt lat="45.02046" lon="6.59258">
        <ele>1695.6</ele>
        <time>2014-07-16T08:04:50Z</time>
      </trkpt>
      <trkpt lat="45.02048" lon="6.59343">
        <ele>1694.8</ele>
        <time>2014-07-16T08:05:24Z</time>
      </trkpt>
      <trkpt lat="45.0206" lon="6.59373">
        <ele>1703.3</ele>
        <time>2014-07-16T08:05:39Z</time>
      </trkpt>
      <trkpt lat="45.02066" lon="6.5932">
        <ele>1707.5</ele>
        <time>2014-07-16T08:06:02Z</time>
      </trkpt>
      <trkpt lat="45.0207" lon="6.59292">
        <ele>1711</ele>
        <time>2014-07-16T08:06:13Z</time>
      </trkpt>
      <trkpt lat="45.02092" lon="6.59235">
        <ele>1717.7</ele>
        <time>2014-07-16T08:06:39Z</time>
      </trkpt>
      <trkpt lat="45.021" lon="6.59197">
        <ele>1720.7</ele>
        <time>2014-07-16T08:06:54Z</time>
      </trkpt>
      <trkpt lat="45.02115" lon="6.59142">
        <ele>1725.3</ele>
        <time>2014-07-16T08:07:17Z</time>
      </trkpt>
      <trkpt lat="45.02115" lon="6.59087">
        <ele>1728.6</ele>
        <time>2014-07-16T08:07:39Z</time>
      </trkpt>
      <trkpt lat="45.02111" lon="6.59043">
        <ele>1729.4</ele>
        <time>2014-07-16T08:07:57Z</time>
      </trkpt>
      <trkpt lat="45.02112" lon="6.58989">
        <ele>1733</ele>
        <time>2014-07-16T08:08:17Z</time>
      </trkpt>
      <trkpt lat="45.02119" lon="6.58925">
        <ele>1737.1</ele>
        <time>2014-07-16T08:08:42Z</time>
      </trkpt>
      <trkpt lat="45.02122" lon="6.58882">
        <ele>1740.1</ele>
        <time>2014-07-16T08:08:59Z</time>
      </trkpt>
      <trkpt lat="45.02112" lon="6.58859">
        <ele>1739.1</ele>
        <time>2014-07-16T08:09:10Z</time>
      </trkpt>
      <trkpt lat="45.02081" lon="6.58828">
        <ele>1741.8</ele>
        <time>2014-07-16T08:09:31Z</time>
      </trkpt>
      <trkpt lat="45.02055" lon="6.58812">
        <ele>1745.7</ele>
        <time>2014-07-16T08:09:46Z</time>
      </trkpt>
      <trkpt lat="45.02037" lon="6.58803">
        <ele>1746.7</ele>
        <time>2014-07-16T08:09:57Z</time>
      </trkpt>
      <trkpt lat="45.02021" lon="6.58761">
        <ele>1752.4</ele>
        <time>2014-07-16T08:10:18Z</time>
      </trkpt>
      <trkpt lat="45.02033" lon="6.58724">
        <ele>1755.1</ele>
        <time>2014-07-16T08:10:33Z</time>
      </trkpt>
      <trkpt lat="45.02041" lon="6.58686">
        <ele>1757</ele>
        <time>2014-07-16T08:10:48Z</time>
      </trkpt>
      <trkpt lat="45.02058" lon="6.58596">
        <ele>1763</ele>
        <time>2014-07-16T08:11:24Z</time>
      </trkpt>
      <trkpt lat="45.02078" lon="6.58514">
        <ele>1770.8</ele>
        <time>2014-07-16T08:11:59Z</time>
      </trkpt>
      <trkpt lat="45.02081" lon="6.58462">
        <ele>1775.9</ele>
        <time>2014-07-16T08:12:23Z</time>
      </trkpt>
      <trkpt lat="45.02088" lon="6.58422">
        <ele>1775.9</ele>
        <time>2014-07-16T08:12:41Z</time>
      </trkpt>
      <trkpt lat="45.02089" lon="6.58448">
        <ele>1777.4</ele>
        <time>2014-07-16T08:22:11Z</time>
      </trkpt>
      <trkpt lat="45.02094" lon="6.58393">
        <ele>1774.2</ele>
        <time>2014-07-16T08:25:22Z</time>
      </trkpt>
      <trkpt lat="45.0213" lon="6.58407">
        <ele>1781</ele>
        <time>2014-07-16T08:26:02Z</time>
      </trkpt>
      <trkpt lat="45.02158" lon="6.58406">
        <ele>1786.8</ele>
        <time>2014-07-16T08:26:45Z</time>
      </trkpt>
      <trkpt lat="45.02196" lon="6.58371">
        <ele>1795.8</ele>
        <time>2014-07-16T08:27:45Z</time>
      </trkpt>
      <trkpt lat="45.02216" lon="6.58385">
        <ele>1803.6</ele>
        <time>2014-07-16T08:28:34Z</time>
      </trkpt>
      <trkpt lat="45.02236" lon="6.58426">
        <ele>1814</ele>
        <time>2014-07-16T08:29:33Z</time>
      </trkpt>
      <trkpt lat="45.02236" lon="6.58479">
        <ele>1823.6</ele>
        <time>2014-07-16T08:30:35Z</time>
      </trkpt>
      <trkpt lat="45.02225" lon="6.58527">
        <ele>1828.4</ele>
        <time>2014-07-16T08:31:32Z</time>
      </trkpt>
      <trkpt lat="45.0223" lon="6.58576">
        <ele>1836.9</ele>
        <time>2014-07-16T08:32:38Z</time>
      </trkpt>
      <trkpt lat="45.02251" lon="6.58632">
        <ele>1849.2</ele>
        <time>2014-07-16T08:33:54Z</time>
      </trkpt>
      <trkpt lat="45.0226" lon="6.58615">
        <ele>1855.6</ele>
        <time>2014-07-16T08:35:09Z</time>
      </trkpt>
      <trkpt lat="45.02273" lon="6.58566">
        <ele>1862.3</ele>
        <time>2014-07-16T08:36:20Z</time>
      </trkpt>
      <trkpt lat="45.02306" lon="6.5852">
        <ele>1875.6</ele>
        <time>2014-07-16T08:37:37Z</time>
      </trkpt>
      <trkpt lat="45.02326" lon="6.58546">
        <ele>1888.4</ele>
        <time>2014-07-16T08:38:41Z</time>
      </trkpt>
      <trkpt lat="45.02334" lon="6.58522">
        <ele>1889.8</ele>
        <time>2014-07-16T08:39:17Z</time>
      </trkpt>
      <trkpt lat="45.02363" lon="6.58511">
        <ele>1905.4</ele>
        <time>2014-07-16T08:44:16Z</time>
      </trkpt>
      <trkpt lat="45.02369" lon="6.58542">
        <ele>1912.3</ele>
        <time>2014-07-16T08:45:35Z</time>
      </trkpt>
      <trkpt lat="45.02382" lon="6.58522">
        <ele>1917.8</ele>
        <time>2014-07-16T08:46:02Z</time>
      </trkpt>
      <trkpt lat="45.02403" lon="6.58507">
        <ele>1922.8</ele>
        <time>2014-07-16T08:46:40Z</time>
      </trkpt>
      <trkpt lat="45.02406" lon="6.58532">
        <ele>1929</ele>
        <time>2014-07-16T08:47:29Z</time>
      </trkpt>
      <trkpt lat="45.02442" lon="6.58519">
        <ele>1938.4</ele>
        <time>2014-07-16T08:48:28Z</time>
      </trkpt>
      <trkpt lat="45.02468" lon="6.58542">
        <ele>1951.4</ele>
        <time>2014-07-16T08:50:02Z</time>
      </trkpt>
      <trkpt lat="45.02481" lon="6.5856">
        <ele>1957.5</ele>
        <time>2014-07-16T08:50:39Z</time>
      </trkpt>
      <trkpt lat="45.02496" lon="6.58596">
        <ele>1967.9</ele>
        <time>2014-07-16T08:51:50Z</time>
      </trkpt>
      <trkpt lat="45.02515" lon="6.58567">
        <ele>1972.7</ele>
        <time>2014-07-16T08:52:30Z</time>
      </trkpt>
      <trkpt lat="45.02541" lon="6.58537">
        <ele>1981.7</ele>
        <time>2014-07-16T08:54:19Z</time>
      </trkpt>
      <trkpt lat="45.02562" lon="6.58495">
        <ele>1988.2</ele>
        <time>2014-07-16T08:55:14Z</time>
      </trkpt>
      <trkpt lat="45.02562" lon="6.58457">
        <ele>1988.9</ele>
        <time>2014-07-16T08:55:56Z</time>
      </trkpt>
      <trkpt lat="45.02581" lon="6.58436">
        <ele>1998.4</ele>
        <time>2014-07-16T08:56:47Z</time>
      </trkpt>
      <trkpt lat="45.02593" lon="6.5847">
        <ele>2002.9</ele>
        <time>2014-07-16T08:57:30Z</time>
      </trkpt>
      <trkpt lat="45.02613" lon="6.58496">
        <ele>2013.8</ele>
        <time>2014-07-16T08:58:18Z</time>
      </trkpt>
      <trkpt lat="45.02623" lon="6.58478">
        <ele>2018.6</ele>
        <time>2014-07-16T08:59:37Z</time>
      </trkpt>
      <trkpt lat="45.02643" lon="6.58499">
        <ele>2030.7</ele>
        <time>2014-07-16T09:00:48Z</time>
      </trkpt>
      <trkpt lat="45.02658" lon="6.58489">
        <ele>2035.9</ele>
        <time>2014-07-16T09:02:16Z</time>
      </trkpt>
      <trkpt lat="45.02675" lon="6.58551">
        <ele>2047.3</ele>
        <time>2014-07-16T09:03:34Z</time>
      </trkpt>
      <trkpt lat="45.0269" lon="6.58567">
        <ele>2052</ele>
        <time>2014-07-16T09:04:03Z</time>
      </trkpt>
      <trkpt lat="45.02719" lon="6.58534">
        <ele>2064.5</ele>
        <time>2014-07-16T09:05:17Z</time>
      </trkpt>
      <trkpt lat="45.0273" lon="6.58499">
        <ele>2071.3</ele>
        <time>2014-07-16T09:06:11Z</time>
      </trkpt>
      <trkpt lat="45.0275" lon="6.58522">
        <ele>2082.3</ele>
        <time>2014-07-16T09:07:19Z</time>
      </trkpt>
      <trkpt lat="45.02751" lon="6.58495">
        <ele>2083.8</ele>
        <time>2014-07-16T09:08:07Z</time>
      </trkpt>
      <trkpt lat="45.02765" lon="6.58445">
        <ele>2090.9</ele>
        <time>2014-07-16T09:08:58Z</time>
      </trkpt>
      <trkpt lat="45.02772" lon="6.58469">
        <ele>2096.5</ele>
        <time>2014-07-16T09:09:56Z</time>
      </trkpt>
      <trkpt lat="45.02778" lon="6.58508">
        <ele>2100.5</ele>
        <time>2014-07-16T09:10:33Z</time>
      </trkpt>
      <trkpt lat="45.02789" lon="6.58545">
        <ele>2107.4</ele>
        <time>2014-07-16T09:11:12Z</time>
      </trkpt>
      <trkpt lat="45.02794" lon="6.58533">
        <ele>2110</ele>
        <time>2014-07-16T09:11:53Z</time>
      </trkpt>
      <trkpt lat="45.02804" lon="6.58481">
        <ele>2115.8</ele>
        <time>2014-07-16T09:12:42Z</time>
      </trkpt>
      <trkpt lat="45.0282" lon="6.5845">
        <ele>2123.3</ele>
        <time>2014-07-16T09:13:23Z</time>
      </trkpt>
      <trkpt lat="45.02836" lon="6.58412">
        <ele>2129.1</ele>
        <time>2014-07-16T09:18:02Z</time>
      </trkpt>
      <trkpt lat="45.02819" lon="6.58365">
        <ele>2132.4</ele>
        <time>2014-07-16T09:18:49Z</time>
      </trkpt>
      <trkpt lat="45.02808" lon="6.58314">
        <ele>2138.8</ele>
        <time>2014-07-16T09:19:32Z</time>
      </trkpt>
      <trkpt lat="45.02807" lon="6.58287">
        <ele>2141.8</ele>
        <time>2014-07-16T09:19:49Z</time>
      </trkpt>
      <trkpt lat="45.02821" lon="6.58196">
        <ele>2152.8</ele>
        <time>2014-07-16T09:21:18Z</time>
      </trkpt>
      <trkpt lat="45.02829" lon="6.58171">
        <ele>2156.1</ele>
        <time>2014-07-16T09:21:34Z</time>
      </trkpt>
      <trkpt lat="45.02847" lon="6.58123">
        <ele>2163</ele>
        <time>2014-07-16T09:22:13Z</time>
      </trkpt>
      <trkpt lat="45.02855" lon="6.58072">
        <ele>2168.1</ele>
        <time>2014-07-16T09:22:49Z</time>
      </trkpt>
      <trkpt lat="45.02874" lon="6.58073">
        <ele>2174</ele>
        <time>2014-07-16T09:23:09Z</time>
      </trkpt>
      <trkpt lat="45.02897" lon="6.58052">
        <ele>2179.6</ele>
        <time>2014-07-16T09:23:35Z</time>
      </trkpt>
      <trkpt lat="45.02897" lon="6.57988">
        <ele>2177.6</ele>
        <time>2014-07-16T09:25:30Z</time>
      </trkpt>
      <trkpt lat="45.02952" lon="6.57927">
        <ele>2182.9</ele>
        <time>2014-07-16T09:26:04Z</time>
      </trkpt>
      <trkpt lat="45.02952" lon="6.57887">
        <ele>2181.1</ele>
        <time>2014-07-16T09:26:18Z</time>
      </trkpt>
      <trkpt lat="45.02951" lon="6.57845">
        <ele>2182.8</ele>
        <time>2014-07-16T09:26:33Z</time>
      </trkpt>
      <trkpt lat="45.02937" lon="6.57747">
        <ele>2188.6</ele>
        <time>2014-07-16T09:27:18Z</time>
      </trkpt>
      <trkpt lat="45.02941" lon="6.57692">
        <ele>2191.1</ele>
        <time>2014-07-16T09:27:34Z</time>
      </trkpt>
      <trkpt lat="45.02939" lon="6.5765">
        <ele>2187.8</ele>
        <time>2014-07-16T09:27:45Z</time>
      </trkpt>
      <trkpt lat="45.02966" lon="6.57602">
        <ele>2186.3</ele>
        <time>2014-07-16T09:27:58Z</time>
      </trkpt>
      <trkpt lat="45.03004" lon="6.57573">
        <ele>2185.6</ele>
        <time>2014-07-16T09:28:11Z</time>
      </trkpt>
      <trkpt lat="45.0303" lon="6.57533">
        <ele>2186.7</ele>
        <time>2014-07-16T09:29:12Z</time>
      </trkpt>
      <trkpt lat="45.0304" lon="6.57495">
        <ele>2187.6</ele>
        <time>2014-07-16T09:29:25Z</time>
      </trkpt>
      <trkpt lat="45.03073" lon="6.57462">
        <ele>2193.4</ele>
        <time>2014-07-16T09:29:41Z</time>
      </trkpt>
      <trkpt lat="45.031" lon="6.57419">
        <ele>2196.3</ele>
        <time>2014-07-16T09:29:57Z</time>
      </trkpt>
      <trkpt lat="45.03123" lon="6.57392">
        <ele>2198.1</ele>
        <time>2014-07-16T09:30:10Z</time>
      </trkpt>
      <trkpt lat="45.03158" lon="6.57373">
        <ele>2202.2</ele>
        <time>2014-07-16T09:30:34Z</time>
      </trkpt>
      <trkpt lat="45.0318" lon="6.57348">
        <ele>2202.8</ele>
        <time>2014-07-16T09:31:05Z</time>
      </trkpt>
      <trkpt lat="45.0323" lon="6.57304">
        <ele>2211.2</ele>
        <time>2014-07-16T09:31:41Z</time>
      </trkpt>
      <trkpt lat="45.03254" lon="6.57278">
        <ele>2214.4</ele>
        <time>2014-07-16T09:31:59Z</time>
      </trkpt>
      <trkpt lat="45.03294" lon="6.57245">
        <ele>2220.1</ele>
        <time>2014-07-16T09:33:01Z</time>
      </trkpt>
      <trkpt lat="45.0331" lon="6.57229">
        <ele>2222.7</ele>
        <time>2014-07-16T09:33:15Z</time>
      </trkpt>
      <trkpt lat="45.03323" lon="6.57178">
        <ele>2220.7</ele>
        <time>2014-07-16T09:33:40Z</time>
      </trkpt>
      <trkpt lat="45.03331" lon="6.57168">
        <ele>2223.3</ele>
        <time>2014-07-16T09:33:46Z</time>
      </trkpt>
      <trkpt lat="45.03353" lon="6.5712">
        <ele>2227.3</ele>
        <time>2014-07-16T09:34:09Z</time>
      </trkpt>
      <trkpt lat="45.03356" lon="6.57066">
        <ele>2225.5</ele>
        <time>2014-07-16T09:34:29Z</time>
      </trkpt>
      <trkpt lat="45.03388" lon="6.56973">
        <ele>2229.4</ele>
        <time>2014-07-16T09:34:57Z</time>
      </trkpt>
      <trkpt lat="45.03402" lon="6.5695">
        <ele>2231.9</ele>
        <time>2014-07-16T09:35:05Z</time>
      </trkpt>
      <trkpt lat="45.03403" lon="6.5691">
        <ele>2229.1</ele>
        <time>2014-07-16T09:35:24Z</time>
      </trkpt>
      <trkpt lat="45.03381" lon="6.56864">
        <ele>2223.3</ele>
        <time>2014-07-16T09:35:46Z</time>
      </trkpt>
      <trkpt lat="45.03364" lon="6.56814">
        <ele>2226.5</ele>
        <time>2014-07-16T09:36:14Z</time>
      </trkpt>
      <trkpt lat="45.03364" lon="6.56758">
        <ele>2229.4</ele>
        <time>2014-07-16T09:37:01Z</time>
      </trkpt>
      <trkpt lat="45.0338" lon="6.56705">
        <ele>2232.1</ele>
        <time>2014-07-16T09:37:34Z</time>
      </trkpt>
      <trkpt lat="45.0341" lon="6.56664">
        <ele>2236.7</ele>
        <time>2014-07-16T09:37:54Z</time>
      </trkpt>
      <trkpt lat="45.03422" lon="6.56627">
        <ele>2235.8</ele>
        <time>2014-07-16T09:38:09Z</time>
      </trkpt>
      <trkpt lat="45.0347" lon="6.5653">
        <ele>2235.1</ele>
        <time>2014-07-16T09:38:44Z</time>
      </trkpt>
      <trkpt lat="45.03485" lon="6.56508">
        <ele>2236.5</ele>
        <time>2014-07-16T09:38:52Z</time>
      </trkpt>
      <trkpt lat="45.03503" lon="6.56476">
        <ele>2237.1</ele>
        <time>2014-07-16T09:39:07Z</time>
      </trkpt>
      <trkpt lat="45.03526" lon="6.56454">
        <ele>2242</ele>
        <time>2014-07-16T09:39:44Z</time>
      </trkpt>
      <trkpt lat="45.03546" lon="6.56408">
        <ele>2244.8</ele>
        <time>2014-07-16T09:40:11Z</time>
      </trkpt>
      <trkpt lat="45.03551" lon="6.56352">
        <ele>2244.6</ele>
        <time>2014-07-16T09:40:35Z</time>
      </trkpt>
      <trkpt lat="45.03565" lon="6.56315">
        <ele>2248</ele>
        <time>2014-07-16T09:40:55Z</time>
      </trkpt>
      <trkpt lat="45.0358" lon="6.56297">
        <ele>2251.2</ele>
        <time>2014-07-16T09:41:10Z</time>
      </trkpt>
      <trkpt lat="45.03605" lon="6.56277">
        <ele>2255.8</ele>
        <time>2014-07-16T09:41:42Z</time>
      </trkpt>
      <trkpt lat="45.03631" lon="6.5624">
        <ele>2258.8</ele>
        <time>2014-07-16T09:43:22Z</time>
      </trkpt>
      <trkpt lat="45.0366" lon="6.56232">
        <ele>2263.4</ele>
        <time>2014-07-16T09:43:44Z</time>
      </trkpt>
      <trkpt lat="45.03677" lon="6.5622">
        <ele>2266.4</ele>
        <time>2014-07-16T09:44:00Z</time>
      </trkpt>
      <trkpt lat="45.03701" lon="6.56194">
        <ele>2269.1</ele>
        <time>2014-07-16T09:44:24Z</time>
      </trkpt>
      <trkpt lat="45.03749" lon="6.56127">
        <ele>2278</ele>
        <time>2014-07-16T09:45:35Z</time>
      </trkpt>
      <trkpt lat="45.03771" lon="6.56103">
        <ele>2282.7</ele>
        <time>2014-07-16T09:45:56Z</time>
      </trkpt>
      <trkpt lat="45.03774" lon="6.56053">
        <ele>2282.4</ele>
        <time>2014-07-16T09:46:22Z</time>
      </trkpt>
      <trkpt lat="45.0375" lon="6.56029">
        <ele>2281.8</ele>
        <time>2014-07-16T09:46:41Z</time>
      </trkpt>
      <trkpt lat="45.03776" lon="6.56019">
        <ele>2287.2</ele>
        <time>2014-07-16T09:47:55Z</time>
      </trkpt>
      <trkpt lat="45.03789" lon="6.56001">
        <ele>2292.8</ele>
        <time>2014-07-16T09:48:20Z</time>
      </trkpt>
      <trkpt lat="45.03774" lon="6.55984">
        <ele>2292.3</ele>
        <time>2014-07-16T09:48:37Z</time>
      </trkpt>
      <trkpt lat="45.03784" lon="6.55968">
        <ele>2296.2</ele>
        <time>2014-07-16T09:49:49Z</time>
      </trkpt>
      <trkpt lat="45.03803" lon="6.55966">
        <ele>2299.2</ele>
        <time>2014-07-16T09:50:04Z</time>
      </trkpt>
      <trkpt lat="45.03793" lon="6.55929">
        <ele>2301.5</ele>
        <time>2014-07-16T09:50:30Z</time>
      </trkpt>
      <trkpt lat="45.03814" lon="6.55885">
        <ele>2307.2</ele>
        <time>2014-07-16T09:51:02Z</time>
      </trkpt>
      <trkpt lat="45.03868" lon="6.5583">
        <ele>2313.1</ele>
        <time>2014-07-16T09:51:52Z</time>
      </trkpt>
      <trkpt lat="45.03888" lon="6.55804">
        <ele>2314.7</ele>
        <time>2014-07-16T09:52:12Z</time>
      </trkpt>
      <trkpt lat="45.03905" lon="6.55788">
        <ele>2315.9</ele>
        <time>2014-07-16T09:52:24Z</time>
      </trkpt>
      <trkpt lat="45.03928" lon="6.55761">
        <ele>2317.7</ele>
        <time>2014-07-16T09:52:41Z</time>
      </trkpt>
      <trkpt lat="45.03954" lon="6.55735">
        <ele>2320.1</ele>
        <time>2014-07-16T09:52:58Z</time>
      </trkpt>
      <trkpt lat="45.03968" lon="6.55718">
        <ele>2319.7</ele>
        <time>2014-07-16T09:53:10Z</time>
      </trkpt>
      <trkpt lat="45.04032" lon="6.55681">
        <ele>2322.7</ele>
        <time>2014-07-16T09:53:45Z</time>
      </trkpt>
      <trkpt lat="45.04058" lon="6.5566">
        <ele>2322.3</ele>
        <time>2014-07-16T09:54:45Z</time>
      </trkpt>
      <trkpt lat="45.04086" lon="6.55646">
        <ele>2322.8</ele>
        <time>2014-07-16T09:55:03Z</time>
      </trkpt>
      <trkpt lat="45.04118" lon="6.55611">
        <ele>2321</ele>
        <time>2014-07-16T09:55:44Z</time>
      </trkpt>
      <trkpt lat="45.04141" lon="6.55581">
        <ele>2318.8</ele>
        <time>2014-07-16T09:55:50Z</time>
      </trkpt>
      <trkpt lat="45.04155" lon="6.55559">
        <ele>2317.1</ele>
        <time>2014-07-16T09:55:54Z</time>
      </trkpt>
      <trkpt lat="45.0419" lon="6.55512">
        <ele>2313.2</ele>
        <time>2014-07-16T09:56:02Z</time>
      </trkpt>
      <trkpt lat="45.04229" lon="6.55475">
        <ele>2312.5</ele>
        <time>2014-07-16T09:56:11Z</time>
      </trkpt>
      <trkpt lat="45.04256" lon="6.55455">
        <ele>2313.4</ele>
        <time>2014-07-16T09:56:23Z</time>
      </trkpt>
      <trkpt lat="45.04272" lon="6.55442">
        <ele>2314.3</ele>
        <time>2014-07-16T09:56:31Z</time>
      </trkpt>
      <trkpt lat="45.0431" lon="6.55417">
        <ele>2311.4</ele>
        <time>2014-07-16T09:56:43Z</time>
      </trkpt>
      <trkpt lat="45.04361" lon="6.55353">
        <ele>2303.6</ele>
        <time>2014-07-16T09:56:58Z</time>
      </trkpt>
      <trkpt lat="45.04419" lon="6.55312">
        <ele>2300.7</ele>
        <time>2014-07-16T09:57:15Z</time>
      </trkpt>
      <trkpt lat="45.04438" lon="6.55293">
        <ele>2301.3</ele>
        <time>2014-07-16T09:57:23Z</time>
      </trkpt>
      <trkpt lat="45.04466" lon="6.55293">
        <ele>2302.4</ele>
        <time>2014-07-16T09:57:34Z</time>
      </trkpt>
      <trkpt lat="45.045" lon="6.55296">
        <ele>2305.3</ele>
        <time>2014-07-16T09:58:14Z</time>
      </trkpt>
      <trkpt lat="45.04532" lon="6.55304">
        <ele>2311.8</ele>
        <time>2014-07-16T09:59:21Z</time>
      </trkpt>
      <trkpt lat="45.04598" lon="6.55314">
        <ele>2324.5</ele>
        <time>2014-07-16T10:01:01Z</time>
      </trkpt>
      <trkpt lat="45.04627" lon="6.5533">
        <ele>2329.6</ele>
        <time>2014-07-16T10:01:37Z</time>
      </trkpt>
      <trkpt lat="45.04666" lon="6.5534">
        <ele>2333.7</ele>
        <time>2014-07-16T10:02:25Z</time>
      </trkpt>
      <trkpt lat="45.04684" lon="6.55383">
        <ele>2338.7</ele>
        <time>2014-07-16T10:03:13Z</time>
      </trkpt>
      <trkpt lat="45.047" lon="6.55403">
        <ele>2342</ele>
        <time>2014-07-16T10:03:41Z</time>
      </trkpt>
      <trkpt lat="45.04739" lon="6.55425">
        <ele>2351.4</ele>
        <time>2014-07-16T10:04:43Z</time>
      </trkpt>
      <trkpt lat="45.04814" lon="6.5541">
        <ele>2361.4</ele>
        <time>2014-07-16T10:07:00Z</time>
      </trkpt>
      <trkpt lat="45.04833" lon="6.55419">
        <ele>2362.9</ele>
        <time>2014-07-16T10:07:13Z</time>
      </trkpt>
      <trkpt lat="45.04867" lon="6.55409">
        <ele>2358.2</ele>
        <time>2014-07-16T10:08:25Z</time>
      </trkpt>
      <trkpt lat="45.04924" lon="6.5538">
        <ele>2360.3</ele>
        <time>2014-07-16T10:11:13Z</time>
      </trkpt>
      <trkpt lat="45.04943" lon="6.55432">
        <ele>2359.7</ele>
        <time>2014-07-16T10:11:34Z</time>
      </trkpt>
      <trkpt lat="45.04969" lon="6.55477">
        <ele>2359.7</ele>
        <time>2014-07-16T10:12:00Z</time>
      </trkpt>
      <trkpt lat="45.04964" lon="6.55531">
        <ele>2360.8</ele>
        <time>2014-07-16T10:13:29Z</time>
      </trkpt>
      <trkpt lat="45.04943" lon="6.55586">
        <ele>2360.4</ele>
        <time>2014-07-16T10:14:26Z</time>
      </trkpt>
      <trkpt lat="45.04939" lon="6.55602">
        <ele>2362.2</ele>
        <time>2014-07-16T10:51:14Z</time>
      </trkpt>
      <trkpt lat="45.04955" lon="6.55588">
        <ele>2365.4</ele>
        <time>2014-07-16T10:51:51Z</time>
      </trkpt>
      <trkpt lat="45.0497" lon="6.55538">
        <ele>2362.7</ele>
        <time>2014-07-16T10:52:34Z</time>
      </trkpt>
      <trkpt lat="45.04972" lon="6.555">
        <ele>2360</ele>
        <time>2014-07-16T10:53:15Z</time>
      </trkpt>
      <trkpt lat="45.04963" lon="6.55462">
        <ele>2359.7</ele>
        <time>2014-07-16T10:53:42Z</time>
      </trkpt>
      <trkpt lat="45.04945" lon="6.55427">
        <ele>2360.5</ele>
        <time>2014-07-16T10:53:57Z</time>
      </trkpt>
      <trkpt lat="45.04925" lon="6.55373">
        <ele>2361</ele>
        <time>2014-07-16T10:54:15Z</time>
      </trkpt>
      <trkpt lat="45.04894" lon="6.55377">
        <ele>2357.9</ele>
        <time>2014-07-16T10:54:35Z</time>
      </trkpt>
      <trkpt lat="45.04896" lon="6.55345">
        <ele>2355.4</ele>
        <time>2014-07-16T10:55:22Z</time>
      </trkpt>
      <trkpt lat="45.04917" lon="6.55311">
        <ele>2356.5</ele>
        <time>2014-07-16T10:55:31Z</time>
      </trkpt>
      <trkpt lat="45.04921" lon="6.5527">
        <ele>2354.5</ele>
        <time>2014-07-16T10:55:51Z</time>
      </trkpt>
      <trkpt lat="45.04918" lon="6.5524">
        <ele>2352.4</ele>
        <time>2014-07-16T10:56:00Z</time>
      </trkpt>
      <trkpt lat="45.04897" lon="6.55204">
        <ele>2346.8</ele>
        <time>2014-07-16T10:56:15Z</time>
      </trkpt>
      <trkpt lat="45.04866" lon="6.55171">
        <ele>2340.2</ele>
        <time>2014-07-16T10:56:33Z</time>
      </trkpt>
      <trkpt lat="45.04853" lon="6.55151">
        <ele>2337.5</ele>
        <time>2014-07-16T10:56:44Z</time>
      </trkpt>
      <trkpt lat="45.0482" lon="6.55111">
        <ele>2329.2</ele>
        <time>2014-07-16T10:57:05Z</time>
      </trkpt>
      <trkpt lat="45.04794" lon="6.55102">
        <ele>2319.8</ele>
        <time>2014-07-16T10:57:33Z</time>
      </trkpt>
      <trkpt lat="45.04774" lon="6.55083">
        <ele>2308.9</ele>
        <time>2014-07-16T10:57:55Z</time>
      </trkpt>
      <trkpt lat="45.04791" lon="6.55031">
        <ele>2304.2</ele>
        <time>2014-07-16T10:58:22Z</time>
      </trkpt>
      <trkpt lat="45.04773" lon="6.54998">
        <ele>2294.4</ele>
        <time>2014-07-16T10:58:54Z</time>
      </trkpt>
      <trkpt lat="45.04763" lon="6.54983">
        <ele>2289.2</ele>
        <time>2014-07-16T11:00:09Z</time>
      </trkpt>
      <trkpt lat="45.04791" lon="6.54961">
        <ele>2292</ele>
        <time>2014-07-16T11:00:20Z</time>
      </trkpt>
      <trkpt lat="45.04804" lon="6.54943">
        <ele>2291.8</ele>
        <time>2014-07-16T11:00:26Z</time>
      </trkpt>
      <trkpt lat="45.04831" lon="6.54925">
        <ele>2291.2</ele>
        <time>2014-07-16T11:00:41Z</time>
      </trkpt>
      <trkpt lat="45.0485" lon="6.54924">
        <ele>2294.1</ele>
        <time>2014-07-16T11:00:49Z</time>
      </trkpt>
      <trkpt lat="45.04877" lon="6.54907">
        <ele>2293.5</ele>
        <time>2014-07-16T11:01:04Z</time>
      </trkpt>
      <trkpt lat="45.04915" lon="6.54898">
        <ele>2296.8</ele>
        <time>2014-07-16T11:02:00Z</time>
      </trkpt>
      <trkpt lat="45.04991" lon="6.54865">
        <ele>2297.4</ele>
        <time>2014-07-16T11:02:43Z</time>
      </trkpt>
      <trkpt lat="45.0501" lon="6.54875">
        <ele>2301.8</ele>
        <time>2014-07-16T11:02:55Z</time>
      </trkpt>
      <trkpt lat="45.0503" lon="6.54838">
        <ele>2297.5</ele>
        <time>2014-07-16T11:03:14Z</time>
      </trkpt>
      <trkpt lat="45.05046" lon="6.54816">
        <ele>2297.1</ele>
        <time>2014-07-16T11:03:19Z</time>
      </trkpt>
      <trkpt lat="45.05083" lon="6.54792">
        <ele>2296.6</ele>
        <time>2014-07-16T11:03:30Z</time>
      </trkpt>
      <trkpt lat="45.05097" lon="6.54773">
        <ele>2297.4</ele>
        <time>2014-07-16T11:03:40Z</time>
      </trkpt>
      <trkpt lat="45.05132" lon="6.54752">
        <ele>2301.8</ele>
        <time>2014-07-16T11:04:11Z</time>
      </trkpt>
      <trkpt lat="45.05158" lon="6.54665">
        <ele>2302.1</ele>
        <time>2014-07-16T11:05:00Z</time>
      </trkpt>
      <trkpt lat="45.05177" lon="6.54637">
        <ele>2306.2</ele>
        <time>2014-07-16T11:05:17Z</time>
      </trkpt>
      <trkpt lat="45.052" lon="6.54617">
        <ele>2309.7</ele>
        <time>2014-07-16T11:05:39Z</time>
      </trkpt>
      <trkpt lat="45.05226" lon="6.54601">
        <ele>2312.8</ele>
        <time>2014-07-16T11:06:04Z</time>
      </trkpt>
      <trkpt lat="45.05293" lon="6.54589">
        <ele>2315</ele>
        <time>2014-07-16T11:07:10Z</time>
      </trkpt>
      <trkpt lat="45.05318" lon="6.54563">
        <ele>2317</ele>
        <time>2014-07-16T11:07:48Z</time>
      </trkpt>
      <trkpt lat="45.05336" lon="6.54531">
        <ele>2317.7</ele>
        <time>2014-07-16T11:08:03Z</time>
      </trkpt>
      <trkpt lat="45.05366" lon="6.54494">
        <ele>2318.5</ele>
        <time>2014-07-16T11:08:20Z</time>
      </trkpt>
      <trkpt lat="45.05391" lon="6.54476">
        <ele>2321</ele>
        <time>2014-07-16T11:08:48Z</time>
      </trkpt>
      <trkpt lat="45.05438" lon="6.5446">
        <ele>2328</ele>
        <time>2014-07-16T11:09:25Z</time>
      </trkpt>
      <trkpt lat="45.05466" lon="6.54462">
        <ele>2333.3</ele>
        <time>2014-07-16T11:09:50Z</time>
      </trkpt>
      <trkpt lat="45.05502" lon="6.54446">
        <ele>2334.4</ele>
        <time>2014-07-16T11:10:19Z</time>
      </trkpt>
      <trkpt lat="45.05538" lon="6.54449">
        <ele>2340</ele>
        <time>2014-07-16T11:11:36Z</time>
      </trkpt>
      <trkpt lat="45.05598" lon="6.5444">
        <ele>2343.7</ele>
        <time>2014-07-16T11:12:12Z</time>
      </trkpt>
      <trkpt lat="45.05619" lon="6.54433">
        <ele>2343.3</ele>
        <time>2014-07-16T11:12:18Z</time>
      </trkpt>
      <trkpt lat="45.05659" lon="6.54404">
        <ele>2342.9</ele>
        <time>2014-07-16T11:12:31Z</time>
      </trkpt>
      <trkpt lat="45.05698" lon="6.54382">
        <ele>2342.6</ele>
        <time>2014-07-16T11:12:45Z</time>
      </trkpt>
      <trkpt lat="45.0574" lon="6.54375">
        <ele>2343.7</ele>
        <time>2014-07-16T11:13:01Z</time>
      </trkpt>
      <trkpt lat="45.05778" lon="6.54379">
        <ele>2346.2</ele>
        <time>2014-07-16T11:13:18Z</time>
      </trkpt>
      <trkpt lat="45.05815" lon="6.54389">
        <ele>2350</ele>
        <time>2014-07-16T11:13:42Z</time>
      </trkpt>
      <trkpt lat="45.05842" lon="6.54404">
        <ele>2353.6</ele>
        <time>2014-07-16T11:14:05Z</time>
      </trkpt>
      <trkpt lat="45.05898" lon="6.54457">
        <ele>2366.2</ele>
        <time>2014-07-16T11:15:08Z</time>
      </trkpt>
      <trkpt lat="45.05917" lon="6.54463">
        <ele>2366.6</ele>
        <time>2014-07-16T11:15:25Z</time>
      </trkpt>
      <trkpt lat="45.05944" lon="6.54458">
        <ele>2367.4</ele>
        <time>2014-07-16T11:16:09Z</time>
      </trkpt>
      <trkpt lat="45.05971" lon="6.5446">
        <ele>2369.6</ele>
        <time>2014-07-16T11:16:44Z</time>
      </trkpt>
      <trkpt lat="45.06" lon="6.54458">
        <ele>2372.4</ele>
        <time>2014-07-16T11:17:35Z</time>
      </trkpt>
      <trkpt lat="45.06038" lon="6.5446">
        <ele>2375.3</ele>
        <time>2014-07-16T11:17:58Z</time>
      </trkpt>
      <trkpt lat="45.06057" lon="6.54484">
        <ele>2378.2</ele>
        <time>2014-07-16T11:18:16Z</time>
      </trkpt>
      <trkpt lat="45.06083" lon="6.5448">
        <ele>2378.2</ele>
        <time>2014-07-16T11:18:36Z</time>
      </trkpt>
      <trkpt lat="45.06107" lon="6.54517">
        <ele>2385.8</ele>
        <time>2014-07-16T11:19:10Z</time>
      </trkpt>
      <trkpt lat="45.06153" lon="6.54507">
        <ele>2389.9</ele>
        <time>2014-07-16T11:19:52Z</time>
      </trkpt>
      <trkpt lat="45.06179" lon="6.54525">
        <ele>2396.3</ele>
        <time>2014-07-16T11:20:53Z</time>
      </trkpt>
      <trkpt lat="45.06212" lon="6.54512">
        <ele>2397</ele>
        <time>2014-07-16T11:21:44Z</time>
      </trkpt>
      <trkpt lat="45.06238" lon="6.54505">
        <ele>2399.1</ele>
        <time>2014-07-16T11:22:30Z</time>
      </trkpt>
      <trkpt lat="45.06264" lon="6.54524">
        <ele>2401.6</ele>
        <time>2014-07-16T11:24:27Z</time>
      </trkpt>
      <trkpt lat="45.06283" lon="6.54532">
        <ele>2400.8</ele>
        <time>2014-07-16T11:24:39Z</time>
      </trkpt>
      <trkpt lat="45.06296" lon="6.54525">
        <ele>2395.7</ele>
        <time>2014-07-16T11:25:01Z</time>
      </trkpt>
      <trkpt lat="45.06308" lon="6.54503">
        <ele>2388.6</ele>
        <time>2014-07-16T11:25:15Z</time>
      </trkpt>
      <trkpt lat="45.06333" lon="6.54537">
        <ele>2384.7</ele>
        <time>2014-07-16T11:25:23Z</time>
      </trkpt>
      <trkpt lat="45.0635" lon="6.5451">
        <ele>2378.2</ele>
        <time>2014-07-16T11:25:38Z</time>
      </trkpt>
      <trkpt lat="45.06394" lon="6.54499">
        <ele>2371.6</ele>
        <time>2014-07-16T11:25:53Z</time>
      </trkpt>
      <trkpt lat="45.06435" lon="6.54517">
        <ele>2371.1</ele>
        <time>2014-07-16T11:26:01Z</time>
      </trkpt>
      <trkpt lat="45.06455" lon="6.54514">
        <ele>2369.5</ele>
        <time>2014-07-16T11:26:09Z</time>
      </trkpt>
      <trkpt lat="45.06502" lon="6.54494">
        <ele>2368.5</ele>
        <time>2014-07-16T11:26:33Z</time>
      </trkpt>
      <trkpt lat="45.06533" lon="6.54488">
        <ele>2370.2</ele>
        <time>2014-07-16T11:26:51Z</time>
      </trkpt>
      <trkpt lat="45.0656" lon="6.54471">
        <ele>2370.2</ele>
        <time>2014-07-16T11:27:05Z</time>
      </trkpt>
      <trkpt lat="45.06596" lon="6.54444">
        <ele>2371.4</ele>
        <time>2014-07-16T11:27:46Z</time>
      </trkpt>
      <trkpt lat="45.06585" lon="6.5441">
        <ele>2368</ele>
        <time>2014-07-16T11:27:58Z</time>
      </trkpt>
      <trkpt lat="45.06594" lon="6.54373">
        <ele>2368.6</ele>
        <time>2014-07-16T11:28:19Z</time>
      </trkpt>
      <trkpt lat="45.06589" lon="6.54334">
        <ele>2368.3</ele>
        <time>2014-07-16T11:28:45Z</time>
      </trkpt>
      <trkpt lat="45.06596" lon="6.54279">
        <ele>2367.8</ele>
        <time>2014-07-16T11:29:18Z</time>
      </trkpt>
      <trkpt lat="45.06593" lon="6.54252">
        <ele>2366.9</ele>
        <time>2014-07-16T11:29:39Z</time>
      </trkpt>
      <trkpt lat="45.0658" lon="6.54214">
        <ele>2363.9</ele>
        <time>2014-07-16T11:30:15Z</time>
      </trkpt>
      <trkpt lat="45.06587" lon="6.54152">
        <ele>2362.3</ele>
        <time>2014-07-16T11:30:28Z</time>
      </trkpt>
      <trkpt lat="45.06601" lon="6.54112">
        <ele>2363.2</ele>
        <time>2014-07-16T11:30:38Z</time>
      </trkpt>
      <trkpt lat="45.06605" lon="6.54064">
        <ele>2364.4</ele>
        <time>2014-07-16T11:34:49Z</time>
      </trkpt>
      <trkpt lat="45.06591" lon="6.53995">
        <ele>2362.8</ele>
        <time>2014-07-16T11:35:21Z</time>
      </trkpt>
      <trkpt lat="45.0659" lon="6.53966">
        <ele>2364.1</ele>
        <time>2014-07-16T11:35:31Z</time>
      </trkpt>
      <trkpt lat="45.06591" lon="6.53925">
        <ele>2367.1</ele>
        <time>2014-07-16T11:35:47Z</time>
      </trkpt>
      <trkpt lat="45.06582" lon="6.53873">
        <ele>2370</ele>
        <time>2014-07-16T11:36:27Z</time>
      </trkpt>
      <trkpt lat="45.06569" lon="6.53837">
        <ele>2367.8</ele>
        <time>2014-07-16T11:36:54Z</time>
      </trkpt>
      <trkpt lat="45.06568" lon="6.53754">
        <ele>2374.7</ele>
        <time>2014-07-16T11:37:45Z</time>
      </trkpt>
      <trkpt lat="45.06579" lon="6.53716">
        <ele>2377.9</ele>
        <time>2014-07-16T11:38:06Z</time>
      </trkpt>
      <trkpt lat="45.06565" lon="6.53682">
        <ele>2376.8</ele>
        <time>2014-07-16T11:38:25Z</time>
      </trkpt>
      <trkpt lat="45.0656" lon="6.53655">
        <ele>2380.8</ele>
        <time>2014-07-16T11:38:39Z</time>
      </trkpt>
      <trkpt lat="45.0655" lon="6.53617">
        <ele>2385</ele>
        <time>2014-07-16T11:38:58Z</time>
      </trkpt>
      <trkpt lat="45.06533" lon="6.53584">
        <ele>2386.3</ele>
        <time>2014-07-16T11:39:21Z</time>
      </trkpt>
      <trkpt lat="45.06525" lon="6.53532">
        <ele>2389.5</ele>
        <time>2014-07-16T11:40:01Z</time>
      </trkpt>
      <trkpt lat="45.06532" lon="6.53515">
        <ele>2392.4</ele>
        <time>2014-07-16T11:41:49Z</time>
      </trkpt>
      <trkpt lat="45.06546" lon="6.53466">
        <ele>2396.4</ele>
        <time>2014-07-16T11:42:09Z</time>
      </trkpt>
      <trkpt lat="45.06566" lon="6.53417">
        <ele>2403.7</ele>
        <time>2014-07-16T11:42:30Z</time>
      </trkpt>
      <trkpt lat="45.06592" lon="6.53372">
        <ele>2407.6</ele>
        <time>2014-07-16T11:42:55Z</time>
      </trkpt>
      <trkpt lat="45.06596" lon="6.53361">
        <ele>2407.4</ele>
        <time>2014-07-16T11:43:02Z</time>
      </trkpt>
      <trkpt lat="45.06626" lon="6.53327">
        <ele>2407.3</ele>
        <time>2014-07-16T11:43:27Z</time>
      </trkpt>
      <trkpt lat="45.0666" lon="6.53299">
        <ele>2403</ele>
        <time>2014-07-16T11:43:45Z</time>
      </trkpt>
      <trkpt lat="45.06686" lon="6.53261">
        <ele>2398.7</ele>
        <time>2014-07-16T11:44:04Z</time>
      </trkpt>
      <trkpt lat="45.06713" lon="6.53241">
        <ele>2400.5</ele>
        <time>2014-07-16T11:44:24Z</time>
      </trkpt>
      <trkpt lat="45.0674" lon="6.53212">
        <ele>2401.1</ele>
        <time>2014-07-16T11:44:39Z</time>
      </trkpt>
      <trkpt lat="45.06765" lon="6.53168">
        <ele>2395.6</ele>
        <time>2014-07-16T11:48:28Z</time>
      </trkpt>
      <trkpt lat="45.06757" lon="6.53148">
        <ele>2388.6</ele>
        <time>2014-07-16T11:48:45Z</time>
      </trkpt>
      <trkpt lat="45.06744" lon="6.53129">
        <ele>2380.7</ele>
        <time>2014-07-16T11:48:56Z</time>
      </trkpt>
      <trkpt lat="45.06724" lon="6.53078">
        <ele>2370.1</ele>
        <time>2014-07-16T11:49:19Z</time>
      </trkpt>
      <trkpt lat="45.06708" lon="6.53083">
        <ele>2363.3</ele>
        <time>2014-07-16T11:49:35Z</time>
      </trkpt>
      <trkpt lat="45.0669" lon="6.53032">
        <ele>2351.3</ele>
        <time>2014-07-16T11:49:51Z</time>
      </trkpt>
      <trkpt lat="45.06671" lon="6.53056">
        <ele>2344.9</ele>
        <time>2014-07-16T11:50:08Z</time>
      </trkpt>
      <trkpt lat="45.0667" lon="6.53088">
        <ele>2344.4</ele>
        <time>2014-07-16T11:50:14Z</time>
      </trkpt>
      <trkpt lat="45.06644" lon="6.53062">
        <ele>2334.4</ele>
        <time>2014-07-16T11:50:28Z</time>
      </trkpt>
      <trkpt lat="45.06657" lon="6.53006">
        <ele>2329.6</ele>
        <time>2014-07-16T11:50:37Z</time>
      </trkpt>
      <trkpt lat="45.06643" lon="6.52987">
        <ele>2318.4</ele>
        <time>2014-07-16T11:51:07Z</time>
      </trkpt>
      <trkpt lat="45.06605" lon="6.52991">
        <ele>2311.6</ele>
        <time>2014-07-16T11:51:15Z</time>
      </trkpt>
      <trkpt lat="45.06586" lon="6.52972">
        <ele>2304.4</ele>
        <time>2014-07-16T11:51:23Z</time>
      </trkpt>
      <trkpt lat="45.06593" lon="6.52945">
        <ele>2299.8</ele>
        <time>2014-07-16T11:51:27Z</time>
      </trkpt>
      <trkpt lat="45.06574" lon="6.52937">
        <ele>2292.9</ele>
        <time>2014-07-16T11:51:44Z</time>
      </trkpt>
      <trkpt lat="45.06598" lon="6.52899">
        <ele>2290.4</ele>
        <time>2014-07-16T11:51:51Z</time>
      </trkpt>
      <trkpt lat="45.06603" lon="6.5285">
        <ele>2285</ele>
        <time>2014-07-16T11:52:36Z</time>
      </trkpt>
      <trkpt lat="45.06612" lon="6.52826">
        <ele>2283</ele>
        <time>2014-07-16T11:53:05Z</time>
      </trkpt>
      <trkpt lat="45.06632" lon="6.52778">
        <ele>2278.1</ele>
        <time>2014-07-16T11:53:33Z</time>
      </trkpt>
      <trkpt lat="45.06628" lon="6.52746">
        <ele>2270.7</ele>
        <time>2014-07-16T11:53:44Z</time>
      </trkpt>
      <trkpt lat="45.06611" lon="6.52771">
        <ele>2267.2</ele>
        <time>2014-07-16T11:53:49Z</time>
      </trkpt>
      <trkpt lat="45.06587" lon="6.52799">
        <ele>2262</ele>
        <time>2014-07-16T11:53:56Z</time>
      </trkpt>
      <trkpt lat="45.06567" lon="6.52815">
        <ele>2258.3</ele>
        <time>2014-07-16T11:54:03Z</time>
      </trkpt>
      <trkpt lat="45.06529" lon="6.52835">
        <ele>2249.7</ele>
        <time>2014-07-16T11:54:17Z</time>
      </trkpt>
      <trkpt lat="45.06501" lon="6.52819">
        <ele>2239.4</ele>
        <time>2014-07-16T11:54:56Z</time>
      </trkpt>
      <trkpt lat="45.06488" lon="6.52795">
        <ele>2230.4</ele>
        <time>2014-07-16T11:55:05Z</time>
      </trkpt>
      <trkpt lat="45.06484" lon="6.52775">
        <ele>2226.1</ele>
        <time>2014-07-16T11:55:26Z</time>
      </trkpt>
      <trkpt lat="45.06458" lon="6.52823">
        <ele>2216</ele>
        <time>2014-07-16T11:56:39Z</time>
      </trkpt>
      <trkpt lat="45.06445" lon="6.52794">
        <ele>2207</ele>
        <time>2014-07-16T11:56:53Z</time>
      </trkpt>
      <trkpt lat="45.06458" lon="6.52743">
        <ele>2201</ele>
        <time>2014-07-16T11:57:08Z</time>
      </trkpt>
      <trkpt lat="45.06479" lon="6.52692">
        <ele>2194.9</ele>
        <time>2014-07-16T11:57:39Z</time>
      </trkpt>
      <trkpt lat="45.06467" lon="6.5269">
        <ele>2186.7</ele>
        <time>2014-07-16T11:58:26Z</time>
      </trkpt>
      <trkpt lat="45.06433" lon="6.52717">
        <ele>2175.8</ele>
        <time>2014-07-16T11:59:12Z</time>
      </trkpt>
      <trkpt lat="45.06415" lon="6.52722">
        <ele>2169</ele>
        <time>2014-07-16T11:59:21Z</time>
      </trkpt>
      <trkpt lat="45.06378" lon="6.52727">
        <ele>2158.1</ele>
        <time>2014-07-16T12:00:16Z</time>
      </trkpt>
      <trkpt lat="45.0636" lon="6.52735">
        <ele>2154.6</ele>
        <time>2014-07-16T12:00:40Z</time>
      </trkpt>
      <trkpt lat="45.06326" lon="6.52758">
        <ele>2148.9</ele>
        <time>2014-07-16T12:01:19Z</time>
      </trkpt>
      <trkpt lat="45.0631" lon="6.52776">
        <ele>2145.8</ele>
        <time>2014-07-16T12:01:28Z</time>
      </trkpt>
      <trkpt lat="45.06295" lon="6.52773">
        <ele>2138.8</ele>
        <time>2014-07-16T12:01:55Z</time>
      </trkpt>
      <trkpt lat="45.06308" lon="6.52733">
        <ele>2134.5</ele>
        <time>2014-07-16T12:02:08Z</time>
      </trkpt>
      <trkpt lat="45.0634" lon="6.52696">
        <ele>2130.6</ele>
        <time>2014-07-16T12:02:36Z</time>
      </trkpt>
      <trkpt lat="45.06301" lon="6.5268">
        <ele>2117</ele>
        <time>2014-07-16T12:03:28Z</time>
      </trkpt>
      <trkpt lat="45.06281" lon="6.52683">
        <ele>2111.6</ele>
        <time>2014-07-16T12:03:35Z</time>
      </trkpt>
      <trkpt lat="45.06248" lon="6.52712">
        <ele>2102</ele>
        <time>2014-07-16T12:03:53Z</time>
      </trkpt>
      <trkpt lat="45.0622" lon="6.52711">
        <ele>2091.2</ele>
        <time>2014-07-16T12:04:15Z</time>
      </trkpt>
      <trkpt lat="45.06196" lon="6.52724">
        <ele>2083.6</ele>
        <time>2014-07-16T12:04:27Z</time>
      </trkpt>
      <trkpt lat="45.06207" lon="6.527">
        <ele>2085.3</ele>
        <time>2014-07-16T12:04:32Z</time>
      </trkpt>
      <trkpt lat="45.06174" lon="6.5267">
        <ele>2076</ele>
        <time>2014-07-16T12:04:46Z</time>
      </trkpt>
      <trkpt lat="45.06202" lon="6.5262">
        <ele>2072.8</ele>
        <time>2014-07-16T12:05:26Z</time>
      </trkpt>
      <trkpt lat="45.06176" lon="6.52639">
        <ele>2068.7</ele>
        <time>2014-07-16T12:05:40Z</time>
      </trkpt>
      <trkpt lat="45.0619" lon="6.52598">
        <ele>2064</ele>
        <time>2014-07-16T12:06:00Z</time>
      </trkpt>
      <trkpt lat="45.06184" lon="6.5257">
        <ele>2060.7</ele>
        <time>2014-07-16T12:06:06Z</time>
      </trkpt>
      <trkpt lat="45.0612" lon="6.52566">
        <ele>2045.6</ele>
        <time>2014-07-16T12:06:28Z</time>
      </trkpt>
      <trkpt lat="45.061" lon="6.52565">
        <ele>2041.9</ele>
        <time>2014-07-16T12:06:34Z</time>
      </trkpt>
      <trkpt lat="45.06087" lon="6.52527">
        <ele>2037.8</ele>
        <time>2014-07-16T12:06:43Z</time>
      </trkpt>
      <trkpt lat="45.06098" lon="6.52477">
        <ele>2037.9</ele>
        <time>2014-07-16T12:06:51Z</time>
      </trkpt>
      <trkpt lat="45.06095" lon="6.52442">
        <ele>2034.2</ele>
        <time>2014-07-16T12:06:57Z</time>
      </trkpt>
      <trkpt lat="45.06126" lon="6.52412">
        <ele>2037</ele>
        <time>2014-07-16T12:12:41Z</time>
      </trkpt>
      <trkpt lat="45.06157" lon="6.52375">
        <ele>2037.3</ele>
        <time>2014-07-16T12:13:01Z</time>
      </trkpt>
      <trkpt lat="45.06211" lon="6.52337">
        <ele>2042.4</ele>
        <time>2014-07-16T12:13:35Z</time>
      </trkpt>
      <trkpt lat="45.06269" lon="6.52289">
        <ele>2046.3</ele>
        <time>2014-07-16T12:14:20Z</time>
      </trkpt>
      <trkpt lat="45.06297" lon="6.52274">
        <ele>2050</ele>
        <time>2014-07-16T12:14:38Z</time>
      </trkpt>
      <trkpt lat="45.06332" lon="6.52249">
        <ele>2054.3</ele>
        <time>2014-07-16T12:15:06Z</time>
      </trkpt>
      <trkpt lat="45.06382" lon="6.52204">
        <ele>2059.4</ele>
        <time>2014-07-16T12:15:46Z</time>
      </trkpt>
      <trkpt lat="45.06393" lon="6.52181">
        <ele>2060</ele>
        <time>2014-07-16T12:16:00Z</time>
      </trkpt>
      <trkpt lat="45.06418" lon="6.52158">
        <ele>2064.5</ele>
        <time>2014-07-16T12:16:22Z</time>
      </trkpt>
      <trkpt lat="45.06445" lon="6.52147">
        <ele>2069.9</ele>
        <time>2014-07-16T12:16:50Z</time>
      </trkpt>
      <trkpt lat="45.06488" lon="6.52115">
        <ele>2071.7</ele>
        <time>2014-07-16T12:17:30Z</time>
      </trkpt>
      <trkpt lat="45.06552" lon="6.52056">
        <ele>2082.2</ele>
        <time>2014-07-16T12:18:32Z</time>
      </trkpt>
      <trkpt lat="45.06577" lon="6.52015">
        <ele>2085.1</ele>
        <time>2014-07-16T12:19:05Z</time>
      </trkpt>
      <trkpt lat="45.0664" lon="6.51952">
        <ele>2092.8</ele>
        <time>2014-07-16T12:20:07Z</time>
      </trkpt>
      <trkpt lat="45.06659" lon="6.51921">
        <ele>2094.3</ele>
        <time>2014-07-16T12:20:27Z</time>
      </trkpt>
      <trkpt lat="45.0667" lon="6.51898">
        <ele>2094.9</ele>
        <time>2014-07-16T12:20:39Z</time>
      </trkpt>
      <trkpt lat="45.06724" lon="6.51839">
        <ele>2101.7</ele>
        <time>2014-07-16T12:21:24Z</time>
      </trkpt>
      <trkpt lat="45.06731" lon="6.51829">
        <ele>2102.1</ele>
        <time>2014-07-16T12:21:31Z</time>
      </trkpt>
      <trkpt lat="45.06764" lon="6.51796">
        <ele>2106.2</ele>
        <time>2014-07-16T12:21:58Z</time>
      </trkpt>
      <trkpt lat="45.06777" lon="6.51775">
        <ele>2105.4</ele>
        <time>2014-07-16T12:22:12Z</time>
      </trkpt>
      <trkpt lat="45.068" lon="6.51753">
        <ele>2109</ele>
        <time>2014-07-16T12:22:45Z</time>
      </trkpt>
      <trkpt lat="45.06852" lon="6.51694">
        <ele>2110.6</ele>
        <time>2014-07-16T12:23:32Z</time>
      </trkpt>
      <trkpt lat="45.06872" lon="6.51689">
        <ele>2113.5</ele>
        <time>2014-07-16T12:23:40Z</time>
      </trkpt>
      <trkpt lat="45.06898" lon="6.51668">
        <ele>2113.6</ele>
        <time>2014-07-16T12:23:52Z</time>
      </trkpt>
      <trkpt lat="45.06926" lon="6.51653">
        <ele>2117.3</ele>
        <time>2014-07-16T12:24:04Z</time>
      </trkpt>
      <trkpt lat="45.06993" lon="6.51605">
        <ele>2121.2</ele>
        <time>2014-07-16T12:24:39Z</time>
      </trkpt>
      <trkpt lat="45.07063" lon="6.51575">
        <ele>2128.1</ele>
        <time>2014-07-16T12:25:26Z</time>
      </trkpt>
      <trkpt lat="45.07179" lon="6.51512">
        <ele>2134.7</ele>
        <time>2014-07-16T12:26:50Z</time>
      </trkpt>
      <trkpt lat="45.07243" lon="6.51479">
        <ele>2138.7</ele>
        <time>2014-07-16T12:27:30Z</time>
      </trkpt>
      <trkpt lat="45.07267" lon="6.51446">
        <ele>2137.3</ele>
        <time>2014-07-16T12:27:53Z</time>
      </trkpt>
      <trkpt lat="45.07317" lon="6.51423">
        <ele>2142.5</ele>
        <time>2014-07-16T12:28:33Z</time>
      </trkpt>
      <trkpt lat="45.07386" lon="6.5137">
        <ele>2140.2</ele>
        <time>2014-07-16T12:29:13Z</time>
      </trkpt>
      <trkpt lat="45.0742" lon="6.51359">
        <ele>2140.2</ele>
        <time>2014-07-16T12:29:29Z</time>
      </trkpt>
      <trkpt lat="45.0745" lon="6.51331">
        <ele>2140.1</ele>
        <time>2014-07-16T12:29:45Z</time>
      </trkpt>
      <trkpt lat="45.07493" lon="6.51315">
        <ele>2140.4</ele>
        <time>2014-07-16T12:30:05Z</time>
      </trkpt>
      <trkpt lat="45.07535" lon="6.51278">
        <ele>2140.9</ele>
        <time>2014-07-16T12:30:25Z</time>
      </trkpt>
      <trkpt lat="45.0755" lon="6.51263">
        <ele>2140.7</ele>
        <time>2014-07-16T12:30:33Z</time>
      </trkpt>
      <trkpt lat="45.07585" lon="6.51232">
        <ele>2140.4</ele>
        <time>2014-07-16T12:30:45Z</time>
      </trkpt>
      <trkpt lat="45.0762" lon="6.51213">
        <ele>2140.3</ele>
        <time>2014-07-16T12:30:57Z</time>
      </trkpt>
      <trkpt lat="45.07629" lon="6.51203">
        <ele>2139.9</ele>
        <time>2014-07-16T12:31:01Z</time>
      </trkpt>
      <trkpt lat="45.07663" lon="6.51168">
        <ele>2139.9</ele>
        <time>2014-07-16T12:31:17Z</time>
      </trkpt>
      <trkpt lat="45.07701" lon="6.51145">
        <ele>2142.2</ele>
        <time>2014-07-16T12:31:33Z</time>
      </trkpt>
      <trkpt lat="45.07735" lon="6.51129">
        <ele>2144.5</ele>
        <time>2014-07-16T12:31:49Z</time>
      </trkpt>
      <trkpt lat="45.07779" lon="6.51101">
        <ele>2147.4</ele>
        <time>2014-07-16T12:32:13Z</time>
      </trkpt>
      <trkpt lat="45.07821" lon="6.51088">
        <ele>2150.8</ele>
        <time>2014-07-16T12:32:33Z</time>
      </trkpt>
      <trkpt lat="45.07848" lon="6.51067">
        <ele>2150.8</ele>
        <time>2014-07-16T12:32:45Z</time>
      </trkpt>
      <trkpt lat="45.07879" lon="6.51052">
        <ele>2152.8</ele>
        <time>2014-07-16T12:33:01Z</time>
      </trkpt>
      <trkpt lat="45.07918" lon="6.51028">
        <ele>2156</ele>
        <time>2014-07-16T12:33:25Z</time>
      </trkpt>
      <trkpt lat="45.07968" lon="6.51007">
        <ele>2160.7</ele>
        <time>2014-07-16T12:33:58Z</time>
      </trkpt>
      <trkpt lat="45.07993" lon="6.50992">
        <ele>2162.5</ele>
        <time>2014-07-16T12:34:14Z</time>
      </trkpt>
      <trkpt lat="45.08032" lon="6.50986">
        <ele>2164.6</ele>
        <time>2014-07-16T12:35:12Z</time>
      </trkpt>
      <trkpt lat="45.08062" lon="6.50967">
        <ele>2164.1</ele>
        <time>2014-07-16T12:35:38Z</time>
      </trkpt>
      <trkpt lat="45.0807" lon="6.50933">
        <ele>2162.6</ele>
        <time>2014-07-16T12:35:44Z</time>
      </trkpt>
      <trkpt lat="45.08071" lon="6.50902">
        <ele>2161.6</ele>
        <time>2014-07-16T12:35:48Z</time>
      </trkpt>
      <trkpt lat="45.08092" lon="6.50854">
        <ele>2165.8</ele>
        <time>2014-07-16T12:36:07Z</time>
      </trkpt>
      <trkpt lat="45.08155" lon="6.50827">
        <ele>2175.4</ele>
        <time>2014-07-16T12:37:02Z</time>
      </trkpt>
      <trkpt lat="45.08136" lon="6.50817">
        <ele>2174.8</ele>
        <time>2014-07-16T12:37:30Z</time>
      </trkpt>
      <trkpt lat="45.08103" lon="6.50831">
        <ele>2171.1</ele>
        <time>2014-07-16T12:39:59Z</time>
      </trkpt>
      <trkpt lat="45.08161" lon="6.50815">
        <ele>2178.4</ele>
        <time>2014-07-16T13:47:35Z</time>
      </trkpt>
      <trkpt lat="45.08283" lon="6.50722">
        <ele>2198.1</ele>
        <time>2014-07-16T13:47:35Z</time>
      </trkpt>
      <trkpt lat="45.08414" lon="6.50568">
        <ele>2217.1</ele>
        <time>2014-07-16T13:47:35Z</time>
      </trkpt>
      <trkpt lat="45.08433" lon="6.50491">
        <ele>2223.3</ele>
        <time>2014-07-16T13:47:35Z</time>
      </trkpt>
      <trkpt lat="45.0849" lon="6.50417">
        <ele>2228.3</ele>
        <time>2014-07-16T13:47:35Z</time>
      </trkpt>
      <trkpt lat="45.08569" lon="6.50343">
        <ele>2248.5</ele>
        <time>2014-07-16T13:47:35Z</time>
      </trkpt>
      <trkpt lat="45.08618" lon="6.50245">
        <ele>2260.7</ele>
        <time>2014-07-16T13:47:35Z</time>
      </trkpt>
      <trkpt lat="45.08611" lon="6.50158">
        <ele>2279.1</ele>
        <time>2014-07-16T13:47:35Z</time>
      </trkpt>
      <trkpt lat="45.08571" lon="6.50136">
        <ele>2285.3</ele>
        <time>2014-07-16T13:47:35Z</time>
      </trkpt>
      <trkpt lat="45.08544" lon="6.50091">
        <ele>2297.4</ele>
        <time>2014-07-16T13:47:35Z</time>
      </trkpt>
      <trkpt lat="45.08532" lon="6.50045">
        <ele>2305.4</ele>
        <time>2014-07-16T13:47:35Z</time>
      </trkpt>
      <trkpt lat="45.08537" lon="6.50004">
        <ele>2315.8</ele>
        <time>2014-07-16T13:47:35Z</time>
      </trkpt>
      <trkpt lat="45.08526" lon="6.49978">
        <ele>2322.8</ele>
        <time>2014-07-16T13:47:35Z</time>
      </trkpt>
      <trkpt lat="45.0852" lon="6.49934">
        <ele>2333.5</ele>
        <time>2014-07-16T13:47:50Z</time>
      </trkpt>
      <trkpt lat="45.08546" lon="6.499">
        <ele>2344.4</ele>
        <time>2014-07-16T13:49:05Z</time>
      </trkpt>
      <trkpt lat="45.08537" lon="6.49882">
        <ele>2345.4</ele>
        <time>2014-07-16T13:50:04Z</time>
      </trkpt>
      <trkpt lat="45.08515" lon="6.49845">
        <ele>2346</ele>
        <time>2014-07-16T13:50:47Z</time>
      </trkpt>
      <trkpt lat="45.08527" lon="6.49822">
        <ele>2349.1</ele>
        <time>2014-07-16T13:51:59Z</time>
      </trkpt>
      <trkpt lat="45.08537" lon="6.49788">
        <ele>2350.7</ele>
        <time>2014-07-16T13:52:21Z</time>
      </trkpt>
      <trkpt lat="45.08545" lon="6.49737">
        <ele>2355.1</ele>
        <time>2014-07-16T13:53:09Z</time>
      </trkpt>
      <trkpt lat="45.08542" lon="6.49678">
        <ele>2357</ele>
        <time>2014-07-16T13:53:32Z</time>
      </trkpt>
      <trkpt lat="45.08532" lon="6.49658">
        <ele>2355</ele>
        <time>2014-07-16T14:04:07Z</time>
      </trkpt>
      <trkpt lat="45.08532" lon="6.49619">
        <ele>2359.7</ele>
        <time>2014-07-16T14:04:47Z</time>
      </trkpt>
      <trkpt lat="45.08515" lon="6.49572">
        <ele>2359.9</ele>
        <time>2014-07-16T14:05:29Z</time>
      </trkpt>
      <trkpt lat="45.08528" lon="6.49511">
        <ele>2359.4</ele>
        <time>2014-07-16T14:05:47Z</time>
      </trkpt>
      <trkpt lat="45.08545" lon="6.49459">
        <ele>2364.4</ele>
        <time>2014-07-16T14:06:18Z</time>
      </trkpt>
      <trkpt lat="45.08527" lon="6.4943">
        <ele>2365.5</ele>
        <time>2014-07-16T14:06:58Z</time>
      </trkpt>
      <trkpt lat="45.08497" lon="6.49397">
        <ele>2367.7</ele>
        <time>2014-07-16T14:07:24Z</time>
      </trkpt>
      <trkpt lat="45.08544" lon="6.49316">
        <ele>2382.9</ele>
        <time>2014-07-16T14:08:19Z</time>
      </trkpt>
      <trkpt lat="45.08564" lon="6.49287">
        <ele>2385</ele>
        <time>2014-07-16T14:08:42Z</time>
      </trkpt>
      <trkpt lat="45.08574" lon="6.49237">
        <ele>2384.2</ele>
        <time>2014-07-16T14:09:23Z</time>
      </trkpt>
      <trkpt lat="45.08596" lon="6.49192">
        <ele>2390.4</ele>
        <time>2014-07-16T14:09:59Z</time>
      </trkpt>
      <trkpt lat="45.08602" lon="6.49153">
        <ele>2389.1</ele>
        <time>2014-07-16T14:10:19Z</time>
      </trkpt>
      <trkpt lat="45.08613" lon="6.4913">
        <ele>2389.4</ele>
        <time>2014-07-16T14:10:30Z</time>
      </trkpt>
      <trkpt lat="45.08615" lon="6.4908">
        <ele>2385.5</ele>
        <time>2014-07-16T14:11:41Z</time>
      </trkpt>
      <trkpt lat="45.08627" lon="6.49057">
        <ele>2389.5</ele>
        <time>2014-07-16T14:11:51Z</time>
      </trkpt>
      <trkpt lat="45.08655" lon="6.49024">
        <ele>2395.4</ele>
        <time>2014-07-16T14:12:37Z</time>
      </trkpt>
      <trkpt lat="45.08651" lon="6.48987">
        <ele>2397.2</ele>
        <time>2014-07-16T14:13:45Z</time>
      </trkpt>
      <trkpt lat="45.08653" lon="6.48946">
        <ele>2397.9</ele>
        <time>2014-07-16T14:16:21Z</time>
      </trkpt>
      <trkpt lat="45.08672" lon="6.48902">
        <ele>2397.8</ele>
        <time>2014-07-16T14:16:50Z</time>
      </trkpt>
      <trkpt lat="45.08658" lon="6.4888">
        <ele>2396.7</ele>
        <time>2014-07-16T14:17:03Z</time>
      </trkpt>
      <trkpt lat="45.08626" lon="6.48848">
        <ele>2396.6</ele>
        <time>2014-07-16T14:17:33Z</time>
      </trkpt>
      <trkpt lat="45.08571" lon="6.4883">
        <ele>2409.9</ele>
        <time>2014-07-16T14:19:27Z</time>
      </trkpt>
      <trkpt lat="45.08553" lon="6.48851">
        <ele>2413.5</ele>
        <time>2014-07-16T14:20:06Z</time>
      </trkpt>
      <trkpt lat="45.08519" lon="6.48856">
        <ele>2420.5</ele>
        <time>2014-07-16T14:21:02Z</time>
      </trkpt>
      <trkpt lat="45.08484" lon="6.48864">
        <ele>2424.9</ele>
        <time>2014-07-16T14:21:44Z</time>
      </trkpt>
      <trkpt lat="45.08456" lon="6.48854">
        <ele>2428.9</ele>
        <time>2014-07-16T14:22:47Z</time>
      </trkpt>
      <trkpt lat="45.08418" lon="6.48845">
        <ele>2433.7</ele>
        <time>2014-07-16T14:23:20Z</time>
      </trkpt>
      <trkpt lat="45.08428" lon="6.48808">
        <ele>2431.6</ele>
        <time>2014-07-16T14:24:37Z</time>
      </trkpt>
      <trkpt lat="45.0844" lon="6.48786">
        <ele>2432.7</ele>
        <time>2014-07-16T14:24:51Z</time>
      </trkpt>
      <trkpt lat="45.08478" lon="6.4876">
        <ele>2442.9</ele>
        <time>2014-07-16T14:26:47Z</time>
      </trkpt>
      <trkpt lat="45.08466" lon="6.48725">
        <ele>2447.6</ele>
        <time>2014-07-16T14:27:49Z</time>
      </trkpt>
      <trkpt lat="45.08465" lon="6.48702">
        <ele>2450.3</ele>
        <time>2014-07-16T14:28:16Z</time>
      </trkpt>
      <trkpt lat="45.08488" lon="6.48604">
        <ele>2463.8</ele>
        <time>2014-07-16T14:30:21Z</time>
      </trkpt>
      <trkpt lat="45.0849" lon="6.48578">
        <ele>2462.5</ele>
        <time>2014-07-16T14:30:49Z</time>
      </trkpt>
      <trkpt lat="45.08497" lon="6.4854">
        <ele>2459.1</ele>
        <time>2014-07-16T14:31:29Z</time>
      </trkpt>
      <trkpt lat="45.08524" lon="6.48508">
        <ele>2458.5</ele>
        <time>2014-07-16T14:32:38Z</time>
      </trkpt>
      <trkpt lat="45.08545" lon="6.4848">
        <ele>2458.7</ele>
        <time>2014-07-16T14:33:03Z</time>
      </trkpt>
      <trkpt lat="45.08568" lon="6.4843">
        <ele>2455.5</ele>
        <time>2014-07-16T14:33:21Z</time>
      </trkpt>
      <trkpt lat="45.08582" lon="6.48392">
        <ele>2454.1</ele>
        <time>2014-07-16T14:33:36Z</time>
      </trkpt>
      <trkpt lat="45.08606" lon="6.48342">
        <ele>2455.7</ele>
        <time>2014-07-16T14:33:54Z</time>
      </trkpt>
      <trkpt lat="45.08621" lon="6.48321">
        <ele>2456.8</ele>
        <time>2014-07-16T14:34:02Z</time>
      </trkpt>
      <trkpt lat="45.0864" lon="6.4827">
        <ele>2457.4</ele>
        <time>2014-07-16T14:34:23Z</time>
      </trkpt>
      <trkpt lat="45.08692" lon="6.48186">
        <ele>2457</ele>
        <time>2014-07-16T14:35:06Z</time>
      </trkpt>
      <trkpt lat="45.08713" lon="6.4809">
        <ele>2451.5</ele>
        <time>2014-07-16T14:35:38Z</time>
      </trkpt>
      <trkpt lat="45.08697" lon="6.47995">
        <ele>2450.2</ele>
        <time>2014-07-16T14:36:16Z</time>
      </trkpt>
      <trkpt lat="45.087" lon="6.47955">
        <ele>2451.1</ele>
        <time>2014-07-16T14:36:34Z</time>
      </trkpt>
      <trkpt lat="45.08693" lon="6.47915">
        <ele>2452</ele>
        <time>2014-07-16T14:36:51Z</time>
      </trkpt>
      <trkpt lat="45.08691" lon="6.4786">
        <ele>2453</ele>
        <time>2014-07-16T14:38:34Z</time>
      </trkpt>
      <trkpt lat="45.08685" lon="6.47794">
        <ele>2455.3</ele>
        <time>2014-07-16T14:39:00Z</time>
      </trkpt>
      <trkpt lat="45.08684" lon="6.47751">
        <ele>2456.2</ele>
        <time>2014-07-16T14:39:15Z</time>
      </trkpt>
      <trkpt lat="45.08681" lon="6.47724">
        <ele>2457.5</ele>
        <time>2014-07-16T14:39:25Z</time>
      </trkpt>
      <trkpt lat="45.08681" lon="6.47675">
        <ele>2463.7</ele>
        <time>2014-07-16T14:41:02Z</time>
      </trkpt>
      <trkpt lat="45.08641" lon="6.47559">
        <ele>2470.3</ele>
        <time>2014-07-16T14:42:13Z</time>
      </trkpt>
      <trkpt lat="45.08637" lon="6.47519">
        <ele>2470.5</ele>
        <time>2014-07-16T14:42:34Z</time>
      </trkpt>
      <trkpt lat="45.08648" lon="6.47464">
        <ele>2471.1</ele>
        <time>2014-07-16T14:43:25Z</time>
      </trkpt>
      <trkpt lat="45.08654" lon="6.47421">
        <ele>2470.9</ele>
        <time>2014-07-16T14:43:36Z</time>
      </trkpt>
      <trkpt lat="45.08683" lon="6.4738">
        <ele>2478.3</ele>
        <time>2014-07-16T14:44:03Z</time>
      </trkpt>
      <trkpt lat="45.08699" lon="6.47329">
        <ele>2481</ele>
        <time>2014-07-16T14:44:42Z</time>
      </trkpt>
      <trkpt lat="45.08698" lon="6.47281">
        <ele>2477.9</ele>
        <time>2014-07-16T14:44:56Z</time>
      </trkpt>
      <trkpt lat="45.08696" lon="6.47249">
        <ele>2475.4</ele>
        <time>2014-07-16T14:45:02Z</time>
      </trkpt>
      <trkpt lat="45.08681" lon="6.47209">
        <ele>2472.6</ele>
        <time>2014-07-16T14:45:09Z</time>
      </trkpt>
      <trkpt lat="45.08651" lon="6.47164">
        <ele>2473.5</ele>
        <time>2014-07-16T14:45:40Z</time>
      </trkpt>
      <trkpt lat="45.08618" lon="6.47142">
        <ele>2477.4</ele>
        <time>2014-07-16T14:46:08Z</time>
      </trkpt>
      <trkpt lat="45.08581" lon="6.47136">
        <ele>2484.3</ele>
        <time>2014-07-16T14:46:59Z</time>
      </trkpt>
      <trkpt lat="45.08568" lon="6.47113">
        <ele>2487.8</ele>
        <time>2014-07-16T14:47:23Z</time>
      </trkpt>
      <trkpt lat="45.08532" lon="6.47091">
        <ele>2494.5</ele>
        <time>2014-07-16T14:48:13Z</time>
      </trkpt>
      <trkpt lat="45.08523" lon="6.47104">
        <ele>2496</ele>
        <time>2014-07-16T14:50:28Z</time>
      </trkpt>
      <trkpt lat="45.08508" lon="6.47119">
        <ele>2499.7</ele>
        <time>2014-07-16T14:50:52Z</time>
      </trkpt>
      <trkpt lat="45.08492" lon="6.47167">
        <ele>2507.4</ele>
        <time>2014-07-16T14:51:51Z</time>
      </trkpt>
      <trkpt lat="45.08465" lon="6.47197">
        <ele>2513.9</ele>
        <time>2014-07-16T15:02:51Z</time>
      </trkpt>
      <trkpt lat="45.08453" lon="6.47219">
        <ele>2517.3</ele>
        <time>2014-07-16T15:03:03Z</time>
      </trkpt>
      <trkpt lat="45.08444" lon="6.47267">
        <ele>2517.9</ele>
        <time>2014-07-16T15:03:21Z</time>
      </trkpt>
      <trkpt lat="45.0842" lon="6.47313">
        <ele>2517.6</ele>
        <time>2014-07-16T15:03:49Z</time>
      </trkpt>
      <trkpt lat="45.08406" lon="6.47377">
        <ele>2515.3</ele>
        <time>2014-07-16T15:04:56Z</time>
      </trkpt>
      <trkpt lat="45.08385" lon="6.47403">
        <ele>2518.9</ele>
        <time>2014-07-16T15:05:14Z</time>
      </trkpt>
      <trkpt lat="45.08374" lon="6.47443">
        <ele>2519.1</ele>
        <time>2014-07-16T15:05:30Z</time>
      </trkpt>
      <trkpt lat="45.08342" lon="6.47474">
        <ele>2522.2</ele>
        <time>2014-07-16T15:05:54Z</time>
      </trkpt>
      <trkpt lat="45.08318" lon="6.47501">
        <ele>2526.1</ele>
        <time>2014-07-16T15:06:13Z</time>
      </trkpt>
      <trkpt lat="45.08306" lon="6.47526">
        <ele>2525.4</ele>
        <time>2014-07-16T15:06:27Z</time>
      </trkpt>
      <trkpt lat="45.08277" lon="6.47565">
        <ele>2524.2</ele>
        <time>2014-07-16T15:06:46Z</time>
      </trkpt>
      <trkpt lat="45.08257" lon="6.47596">
        <ele>2526.4</ele>
        <time>2014-07-16T15:07:04Z</time>
      </trkpt>
      <trkpt lat="45.08204" lon="6.47609">
        <ele>2534.9</ele>
        <time>2014-07-16T15:08:23Z</time>
      </trkpt>
      <trkpt lat="45.08176" lon="6.47614">
        <ele>2541</ele>
        <time>2014-07-16T15:08:54Z</time>
      </trkpt>
      <trkpt lat="45.08143" lon="6.47636">
        <ele>2547</ele>
        <time>2014-07-16T15:09:43Z</time>
      </trkpt>
      <trkpt lat="45.08117" lon="6.47648">
        <ele>2553.9</ele>
        <time>2014-07-16T15:10:23Z</time>
      </trkpt>
      <trkpt lat="45.08044" lon="6.47658">
        <ele>2568.8</ele>
        <time>2014-07-16T15:12:15Z</time>
      </trkpt>
      <trkpt lat="45.08015" lon="6.47655">
        <ele>2573</ele>
        <time>2014-07-16T15:12:51Z</time>
      </trkpt>
      <trkpt lat="45.07998" lon="6.47664">
        <ele>2573.8</ele>
        <time>2014-07-16T15:13:12Z</time>
      </trkpt>
      <trkpt lat="45.07954" lon="6.47675">
        <ele>2570.4</ele>
        <time>2014-07-16T15:16:57Z</time>
      </trkpt>
      <trkpt lat="45.07912" lon="6.4769">
        <ele>2566.4</ele>
        <time>2014-07-16T15:17:06Z</time>
      </trkpt>
      <trkpt lat="45.07895" lon="6.47712">
        <ele>2565.9</ele>
        <time>2014-07-16T15:17:11Z</time>
      </trkpt>
      <trkpt lat="45.0785" lon="6.47697">
        <ele>2562</ele>
        <time>2014-07-16T15:17:23Z</time>
      </trkpt>
      <trkpt lat="45.07827" lon="6.47673">
        <ele>2565.2</ele>
        <time>2014-07-16T15:17:29Z</time>
      </trkpt>
      <trkpt lat="45.07805" lon="6.47668">
        <ele>2566.8</ele>
        <time>2014-07-16T15:17:35Z</time>
      </trkpt>
      <trkpt lat="45.07764" lon="6.4768">
        <ele>2567.8</ele>
        <time>2014-07-16T15:17:47Z</time>
      </trkpt>
      <trkpt lat="45.07742" lon="6.47683">
        <ele>2568.5</ele>
        <time>2014-07-16T15:17:53Z</time>
      </trkpt>
      <trkpt lat="45.07717" lon="6.47695">
        <ele>2565.5</ele>
        <time>2014-07-16T15:17:58Z</time>
      </trkpt>
      <trkpt lat="45.07669" lon="6.47728">
        <ele>2557.9</ele>
        <time>2014-07-16T15:18:06Z</time>
      </trkpt>
      <trkpt lat="45.07633" lon="6.47748">
        <ele>2541.5</ele>
        <time>2014-07-16T15:18:37Z</time>
      </trkpt>
      <trkpt lat="45.07591" lon="6.4773">
        <ele>2526.4</ele>
        <time>2014-07-16T15:18:53Z</time>
      </trkpt>
      <trkpt lat="45.07555" lon="6.47705">
        <ele>2517.3</ele>
        <time>2014-07-16T15:19:08Z</time>
      </trkpt>
      <trkpt lat="45.07537" lon="6.47711">
        <ele>2510.5</ele>
        <time>2014-07-16T15:19:33Z</time>
      </trkpt>
      <trkpt lat="45.07506" lon="6.47676">
        <ele>2501.5</ele>
        <time>2014-07-16T15:19:43Z</time>
      </trkpt>
      <trkpt lat="45.07488" lon="6.47657">
        <ele>2495.5</ele>
        <time>2014-07-16T15:19:48Z</time>
      </trkpt>
      <trkpt lat="45.07477" lon="6.47606">
        <ele>2487.2</ele>
        <time>2014-07-16T15:20:34Z</time>
      </trkpt>
      <trkpt lat="45.07491" lon="6.47564">
        <ele>2481.9</ele>
        <time>2014-07-16T15:20:42Z</time>
      </trkpt>
      <trkpt lat="45.07479" lon="6.47541">
        <ele>2478.6</ele>
        <time>2014-07-16T15:20:48Z</time>
      </trkpt>
      <trkpt lat="45.07459" lon="6.47513">
        <ele>2474.7</ele>
        <time>2014-07-16T15:21:03Z</time>
      </trkpt>
      <trkpt lat="45.07467" lon="6.47461">
        <ele>2462.4</ele>
        <time>2014-07-16T15:21:22Z</time>
      </trkpt>
      <trkpt lat="45.07469" lon="6.47443">
        <ele>2457.9</ele>
        <time>2014-07-16T15:21:25Z</time>
      </trkpt>
      <trkpt lat="45.07468" lon="6.47382">
        <ele>2448.1</ele>
        <time>2014-07-16T15:21:47Z</time>
      </trkpt>
      <trkpt lat="45.0743" lon="6.4735">
        <ele>2439.8</ele>
        <time>2014-07-16T15:22:08Z</time>
      </trkpt>
      <trkpt lat="45.07361" lon="6.4727">
        <ele>2425.8</ele>
        <time>2014-07-16T15:22:25Z</time>
      </trkpt>
      <trkpt lat="45.07337" lon="6.47255">
        <ele>2420.7</ele>
        <time>2014-07-16T15:22:28Z</time>
      </trkpt>
      <trkpt lat="45.07301" lon="6.47241">
        <ele>2415.5</ele>
        <time>2014-07-16T15:22:32Z</time>
      </trkpt>
      <trkpt lat="45.07275" lon="6.47241">
        <ele>2412.6</ele>
        <time>2014-07-16T15:22:36Z</time>
      </trkpt>
      <trkpt lat="45.07276" lon="6.47207">
        <ele>2414.4</ele>
        <time>2014-07-16T15:23:14Z</time>
      </trkpt>
      <trkpt lat="45.07286" lon="6.47167">
        <ele>2412.2</ele>
        <time>2014-07-16T15:23:35Z</time>
      </trkpt>
      <trkpt lat="45.07314" lon="6.47078">
        <ele>2409</ele>
        <time>2014-07-16T15:24:10Z</time>
      </trkpt>
      <trkpt lat="45.073" lon="6.47036">
        <ele>2406.1</ele>
        <time>2014-07-16T15:24:20Z</time>
      </trkpt>
      <trkpt lat="45.07305" lon="6.46997">
        <ele>2405.9</ele>
        <time>2014-07-16T15:24:29Z</time>
      </trkpt>
      <trkpt lat="45.07328" lon="6.46965">
        <ele>2407.6</ele>
        <time>2014-07-16T15:24:40Z</time>
      </trkpt>
      <trkpt lat="45.07352" lon="6.46918">
        <ele>2407.4</ele>
        <time>2014-07-16T15:24:57Z</time>
      </trkpt>
      <trkpt lat="45.07358" lon="6.4686">
        <ele>2400.9</ele>
        <time>2014-07-16T15:25:21Z</time>
      </trkpt>
      <trkpt lat="45.07354" lon="6.46826">
        <ele>2388.4</ele>
        <time>2014-07-16T15:26:21Z</time>
      </trkpt>
      <trkpt lat="45.07345" lon="6.46809">
        <ele>2381.2</ele>
        <time>2014-07-16T15:26:58Z</time>
      </trkpt>
      <trkpt lat="45.07382" lon="6.46781">
        <ele>2375</ele>
        <time>2014-07-16T15:27:12Z</time>
      </trkpt>
      <trkpt lat="45.07393" lon="6.46723">
        <ele>2369.1</ele>
        <time>2014-07-16T15:27:26Z</time>
      </trkpt>
      <trkpt lat="45.07404" lon="6.46701">
        <ele>2368.8</ele>
        <time>2014-07-16T15:27:41Z</time>
      </trkpt>
      <trkpt lat="45.0742" lon="6.46662">
        <ele>2367.8</ele>
        <time>2014-07-16T15:27:53Z</time>
      </trkpt>
      <trkpt lat="45.07411" lon="6.4661">
        <ele>2356.9</ele>
        <time>2014-07-16T15:28:15Z</time>
      </trkpt>
      <trkpt lat="45.07396" lon="6.46594">
        <ele>2353.9</ele>
        <time>2014-07-16T15:28:27Z</time>
      </trkpt>
      <trkpt lat="45.0738" lon="6.46559">
        <ele>2348</ele>
        <time>2014-07-16T15:29:09Z</time>
      </trkpt>
      <trkpt lat="45.07386" lon="6.46532">
        <ele>2338.9</ele>
        <time>2014-07-16T15:29:36Z</time>
      </trkpt>
      <trkpt lat="45.07393" lon="6.46484">
        <ele>2326.8</ele>
        <time>2014-07-16T15:30:28Z</time>
      </trkpt>
      <trkpt lat="45.07421" lon="6.46454">
        <ele>2320.2</ele>
        <time>2014-07-16T15:30:37Z</time>
      </trkpt>
      <trkpt lat="45.07447" lon="6.46434">
        <ele>2316.6</ele>
        <time>2014-07-16T15:30:47Z</time>
      </trkpt>
      <trkpt lat="45.07503" lon="6.46337">
        <ele>2300</ele>
        <time>2014-07-16T15:31:16Z</time>
      </trkpt>
      <trkpt lat="45.07734" lon="6.46119">
        <ele>2272.2</ele>
        <time>2014-07-16T15:33:06Z</time>
      </trkpt>
      <trkpt lat="45.07941" lon="6.45972">
        <ele>2248.2</ele>
        <time>2014-07-16T15:34:27Z</time>
      </trkpt>
      <trkpt lat="45.08004" lon="6.4591">
        <ele>2240.9</ele>
        <time>2014-07-16T15:34:43Z</time>
      </trkpt>
      <trkpt lat="45.0804" lon="6.45877">
        <ele>2238.6</ele>
        <time>2014-07-16T15:34:52Z</time>
      </trkpt>
      <trkpt lat="45.0806" lon="6.45851">
        <ele>2235.2</ele>
        <time>2014-07-16T15:34:58Z</time>
      </trkpt>
      <trkpt lat="45.08078" lon="6.45814">
        <ele>2230.5</ele>
        <time>2014-07-16T15:35:06Z</time>
      </trkpt>
      <trkpt lat="45.08119" lon="6.45774">
        <ele>2228.1</ele>
        <time>2014-07-16T15:35:18Z</time>
      </trkpt>
      <trkpt lat="45.08149" lon="6.4575">
        <ele>2227.5</ele>
        <time>2014-07-16T15:35:30Z</time>
      </trkpt>
      <trkpt lat="45.08209" lon="6.45686">
        <ele>2221.5</ele>
        <time>2014-07-16T15:35:54Z</time>
      </trkpt>
      <trkpt lat="45.08253" lon="6.45617">
        <ele>2212.3</ele>
        <time>2014-07-16T15:36:10Z</time>
      </trkpt>
      <trkpt lat="45.08271" lon="6.45596">
        <ele>2209.9</ele>
        <time>2014-07-16T15:36:18Z</time>
      </trkpt>
      <trkpt lat="45.08293" lon="6.45581">
        <ele>2208.2</ele>
        <time>2014-07-16T15:36:54Z</time>
      </trkpt>
      <trkpt lat="45.08271" lon="6.45602">
        <ele>2211.7</ele>
        <time>2014-07-16T15:37:26Z</time>
      </trkpt>
      <trkpt lat="45.08234" lon="6.45643">
        <ele>2214.1</ele>
        <time>2014-07-16T15:38:16Z</time>
      </trkpt>
      <trkpt lat="45.08217" lon="6.45668">
        <ele>2216.5</ele>
        <time>2014-07-16T15:38:44Z</time>
      </trkpt>
      <trkpt lat="45.08191" lon="6.45694">
        <ele>2219.2</ele>
        <time>2014-07-16T15:39:12Z</time>
      </trkpt>
      <trkpt lat="45.08231" lon="6.45595">
        <ele>2196.4</ele>
        <time>2014-07-16T15:40:24Z</time>
      </trkpt>
      <trkpt lat="45.08215" lon="6.45575">
        <ele>2183.8</ele>
        <time>2014-07-16T15:41:04Z</time>
      </trkpt>
      <trkpt lat="45.0822" lon="6.45537">
        <ele>2171</ele>
        <time>2014-07-16T15:41:48Z</time>
      </trkpt>
      <trkpt lat="45.08271" lon="6.45442">
        <ele>2154.5</ele>
        <time>2014-07-16T15:42:16Z</time>
      </trkpt>
      <trkpt lat="45.08292" lon="6.45386">
        <ele>2144.3</ele>
        <time>2014-07-16T15:42:28Z</time>
      </trkpt>
      <trkpt lat="45.08261" lon="6.45372">
        <ele>2135.2</ele>
        <time>2014-07-16T15:42:48Z</time>
      </trkpt>
      <trkpt lat="45.08256" lon="6.45323">
        <ele>2135.3</ele>
        <time>2014-07-16T15:42:56Z</time>
      </trkpt>
      <trkpt lat="45.0828" lon="6.45235">
        <ele>2127.4</ele>
        <time>2014-07-16T15:43:08Z</time>
      </trkpt>
      <trkpt lat="45.08292" lon="6.45199">
        <ele>2124.7</ele>
        <time>2014-07-16T15:43:12Z</time>
      </trkpt>
      <trkpt lat="45.08312" lon="6.4517">
        <ele>2126.1</ele>
        <time>2014-07-16T15:43:16Z</time>
      </trkpt>
      <trkpt lat="45.08354" lon="6.45148">
        <ele>2122.4</ele>
        <time>2014-07-16T15:43:23Z</time>
      </trkpt>
      <trkpt lat="45.08378" lon="6.45164">
        <ele>2119.8</ele>
        <time>2014-07-16T15:43:27Z</time>
      </trkpt>
      <trkpt lat="45.08386" lon="6.45209">
        <ele>2118.8</ele>
        <time>2014-07-16T15:43:34Z</time>
      </trkpt>
      <trkpt lat="45.08428" lon="6.45209">
        <ele>2120.3</ele>
        <time>2014-07-16T15:43:53Z</time>
      </trkpt>
      <trkpt lat="45.0842" lon="6.45201">
        <ele>2117.2</ele>
        <time>2014-07-16T15:44:19Z</time>
      </trkpt>
      <trkpt lat="45.08426" lon="6.45111">
        <ele>2103.4</ele>
        <time>2014-07-16T15:44:46Z</time>
      </trkpt>
      <trkpt lat="45.08458" lon="6.45003">
        <ele>2091.7</ele>
        <time>2014-07-16T15:45:02Z</time>
      </trkpt>
      <trkpt lat="45.08479" lon="6.44972">
        <ele>2088.5</ele>
        <time>2014-07-16T15:45:06Z</time>
      </trkpt>
      <trkpt lat="45.085" lon="6.44922">
        <ele>2086.4</ele>
        <time>2014-07-16T15:45:20Z</time>
      </trkpt>
      <trkpt lat="45.0852" lon="6.44818">
        <ele>2081.3</ele>
        <time>2014-07-16T15:46:16Z</time>
      </trkpt>
      <trkpt lat="45.08523" lon="6.4479">
        <ele>2080</ele>
        <time>2014-07-16T15:46:20Z</time>
      </trkpt>
      <trkpt lat="45.0853" lon="6.44744">
        <ele>2078.1</ele>
        <time>2014-07-16T15:46:27Z</time>
      </trkpt>
      <trkpt lat="45.08544" lon="6.44683">
        <ele>2075.8</ele>
        <time>2014-07-16T15:46:39Z</time>
      </trkpt>
      <trkpt lat="45.08579" lon="6.4459">
        <ele>2069.6</ele>
        <time>2014-07-16T15:46:57Z</time>
      </trkpt>
      <trkpt lat="45.08605" lon="6.44539">
        <ele>2064.8</ele>
        <time>2014-07-16T15:47:06Z</time>
      </trkpt>
      <trkpt lat="45.08625" lon="6.44525">
        <ele>2064.3</ele>
        <time>2014-07-16T15:47:12Z</time>
      </trkpt>
      <trkpt lat="45.08661" lon="6.44449">
        <ele>2058.1</ele>
        <time>2014-07-16T15:47:27Z</time>
      </trkpt>
      <trkpt lat="45.08659" lon="6.44391">
        <ele>2056.9</ele>
        <time>2014-07-16T15:47:36Z</time>
      </trkpt>
      <trkpt lat="45.08671" lon="6.44338">
        <ele>2055.3</ele>
        <time>2014-07-16T15:47:44Z</time>
      </trkpt>
      <trkpt lat="45.08679" lon="6.44275">
        <ele>2051.5</ele>
        <time>2014-07-16T15:47:52Z</time>
      </trkpt>
      <trkpt lat="45.08687" lon="6.44227">
        <ele>2047.5</ele>
        <time>2014-07-16T15:48:01Z</time>
      </trkpt>
      <trkpt lat="45.08702" lon="6.44173">
        <ele>2044.3</ele>
        <time>2014-07-16T15:48:10Z</time>
      </trkpt>
      <trkpt lat="45.08707" lon="6.44159">
        <ele>2043.4</ele>
        <time>2014-07-16T15:48:12Z</time>
      </trkpt>
      <trkpt lat="45.08734" lon="6.44109">
        <ele>2040</ele>
        <time>2014-07-16T15:48:20Z</time>
      </trkpt>
      <trkpt lat="45.08769" lon="6.44031">
        <ele>2031.5</ele>
        <time>2014-07-16T15:48:36Z</time>
      </trkpt>
      <trkpt lat="45.08813" lon="6.43945">
        <ele>2018.4</ele>
        <time>2014-07-16T15:48:56Z</time>
      </trkpt>
      <trkpt lat="45.08946" lon="6.43665">
        <ele>1979.6</ele>
        <time>2014-07-16T15:49:50Z</time>
      </trkpt>
      <trkpt lat="45.08962" lon="6.43607">
        <ele>1971.9</ele>
        <time>2014-07-16T15:50:00Z</time>
      </trkpt>
      <trkpt lat="45.08969" lon="6.43597">
        <ele>1970.7</ele>
        <time>2014-07-16T15:51:10Z</time>
      </trkpt>
      <trkpt lat="45.08964" lon="6.43591">
        <ele>1970.4</ele>
        <time>2014-07-16T15:53:45Z</time>
      </trkpt>
      <trkpt lat="45.08992" lon="6.43625">
        <ele>1971.3</ele>
        <time>2014-07-16T15:56:36Z</time>
      </trkpt>
      <trkpt lat="45.08973" lon="6.43613">
        <ele>1972.1</ele>
        <time>2014-07-16T15:57:16Z</time>
      </trkpt>
      <trkpt lat="45.0896" lon="6.43623">
        <ele>1973.4</ele>
        <time>2014-07-16T15:59:48Z</time>
      </trkpt>
      <trkpt lat="45.0898" lon="6.4361">
        <ele>1971</ele>
        <time>2014-07-16T16:00:53Z</time>
      </trkpt>
      <trkpt lat="45.08957" lon="6.43588">
        <ele>1970.5</ele>
        <time>2014-07-16T16:01:21Z</time>
      </trkpt>
      <trkpt lat="45.08989" lon="6.43546">
        <ele>1964.1</ele>
        <time>2014-07-16T16:01:41Z</time>
      </trkpt>
      <trkpt lat="45.09082" lon="6.43519">
        <ele>1960.1</ele>
        <time>2014-07-16T16:01:57Z</time>
      </trkpt>
      <trkpt lat="45.09129" lon="6.43478">
        <ele>1958.8</ele>
        <time>2014-07-16T16:02:11Z</time>
      </trkpt>
    </trkseg>
  </trk>
</gpx>